<?xml version="1.0" encoding="UTF-8" standalone="no" ?>
<gpx xmlns="http://www.topografix.com/GPX/1/1" xmlns:xsi="http://www.w3.org/2001/XMLSchema-instance" xsi:schemaLocation="http://www.topografix.com/GPX/1/1 http://www.topografix.com/GPX/1/1/gpx.xsd" version="1.1" creator="VisuGPX - https://www.visugpx.com">
  <metadata>
    <name>Sortie VTT du 21/07/2012</name>
    <desc><![CDATA[Avec Tristan et Marie ! Bien sympa]]></desc>
  </metadata>
  <trk>
    <name><![CDATA[runtastic_20120721_0816_VTT]]></name>
    <trkseg>
      <trkpt lat="46.63551" lon="4.7717">
        <ele>188</ele>
        <time>2012-07-21T08:16:31.000Z</time>
      </trkpt>
      <trkpt lat="46.63554" lon="4.77172">
        <ele>188</ele>
        <time>2012-07-21T08:16:47.000Z</time>
      </trkpt>
      <trkpt lat="46.63552" lon="4.77172">
        <ele>188</ele>
        <time>2012-07-21T08:16:56.000Z</time>
      </trkpt>
      <trkpt lat="46.63552" lon="4.7717">
        <ele>188</ele>
        <time>2012-07-21T08:16:59.000Z</time>
      </trkpt>
      <trkpt lat="46.63544" lon="4.77159">
        <ele>188</ele>
        <time>2012-07-21T08:17:03.000Z</time>
      </trkpt>
      <trkpt lat="46.6354" lon="4.77156">
        <ele>188</ele>
        <time>2012-07-21T08:17:06.000Z</time>
      </trkpt>
      <trkpt lat="46.63514" lon="4.77147">
        <ele>188</ele>
        <time>2012-07-21T08:17:16.000Z</time>
      </trkpt>
      <trkpt lat="46.635" lon="4.77142">
        <ele>189</ele>
        <time>2012-07-21T08:17:21.000Z</time>
      </trkpt>
      <trkpt lat="46.63472" lon="4.77127">
        <ele>189</ele>
        <time>2012-07-21T08:17:31.000Z</time>
      </trkpt>
      <trkpt lat="46.63429" lon="4.77102">
        <ele>189</ele>
        <time>2012-07-21T08:17:46.000Z</time>
      </trkpt>
      <trkpt lat="46.63424" lon="4.77101">
        <ele>189</ele>
        <time>2012-07-21T08:17:48.000Z</time>
      </trkpt>
      <trkpt lat="46.63417" lon="4.77097">
        <ele>189</ele>
        <time>2012-07-21T08:17:51.000Z</time>
      </trkpt>
      <trkpt lat="46.63404" lon="4.77092">
        <ele>190</ele>
        <time>2012-07-21T08:17:55.000Z</time>
      </trkpt>
      <trkpt lat="46.6336" lon="4.7707">
        <ele>190</ele>
        <time>2012-07-21T08:18:10.000Z</time>
      </trkpt>
      <trkpt lat="46.63354" lon="4.77065">
        <ele>190</ele>
        <time>2012-07-21T08:18:12.000Z</time>
      </trkpt>
      <trkpt lat="46.63345" lon="4.77056">
        <ele>191</ele>
        <time>2012-07-21T08:18:15.000Z</time>
      </trkpt>
      <trkpt lat="46.63336" lon="4.77051">
        <ele>191</ele>
        <time>2012-07-21T08:18:18.000Z</time>
      </trkpt>
      <trkpt lat="46.6333" lon="4.77058">
        <ele>191</ele>
        <time>2012-07-21T08:18:21.000Z</time>
      </trkpt>
      <trkpt lat="46.63327" lon="4.77065">
        <ele>191</ele>
        <time>2012-07-21T08:18:23.000Z</time>
      </trkpt>
      <trkpt lat="46.63327" lon="4.77077">
        <ele>191</ele>
        <time>2012-07-21T08:18:25.000Z</time>
      </trkpt>
      <trkpt lat="46.63326" lon="4.77091">
        <ele>192</ele>
        <time>2012-07-21T08:18:28.000Z</time>
      </trkpt>
      <trkpt lat="46.63323" lon="4.77104">
        <ele>192</ele>
        <time>2012-07-21T08:18:31.000Z</time>
      </trkpt>
      <trkpt lat="46.63319" lon="4.77125">
        <ele>193</ele>
        <time>2012-07-21T08:18:36.000Z</time>
      </trkpt>
      <trkpt lat="46.63313" lon="4.77145">
        <ele>194</ele>
        <time>2012-07-21T08:18:41.000Z</time>
      </trkpt>
      <trkpt lat="46.63303" lon="4.77177">
        <ele>195</ele>
        <time>2012-07-21T08:18:50.000Z</time>
      </trkpt>
      <trkpt lat="46.63298" lon="4.77205">
        <ele>195</ele>
        <time>2012-07-21T08:18:57.000Z</time>
      </trkpt>
      <trkpt lat="46.63296" lon="4.77217">
        <ele>196</ele>
        <time>2012-07-21T08:19:00.000Z</time>
      </trkpt>
      <trkpt lat="46.63291" lon="4.77233">
        <ele>196</ele>
        <time>2012-07-21T08:19:04.000Z</time>
      </trkpt>
      <trkpt lat="46.63287" lon="4.77246">
        <ele>197</ele>
        <time>2012-07-21T08:19:07.000Z</time>
      </trkpt>
      <trkpt lat="46.63268" lon="4.77308">
        <ele>197</ele>
        <time>2012-07-21T08:19:22.000Z</time>
      </trkpt>
      <trkpt lat="46.63251" lon="4.77362">
        <ele>196</ele>
        <time>2012-07-21T08:19:34.000Z</time>
      </trkpt>
      <trkpt lat="46.63235" lon="4.77425">
        <ele>195</ele>
        <time>2012-07-21T08:19:47.000Z</time>
      </trkpt>
      <trkpt lat="46.63217" lon="4.77486">
        <ele>195</ele>
        <time>2012-07-21T08:19:57.000Z</time>
      </trkpt>
      <trkpt lat="46.63196" lon="4.7756">
        <ele>195</ele>
        <time>2012-07-21T08:20:11.000Z</time>
      </trkpt>
      <trkpt lat="46.63174" lon="4.77624">
        <ele>195</ele>
        <time>2012-07-21T08:20:23.000Z</time>
      </trkpt>
      <trkpt lat="46.6315" lon="4.77681">
        <ele>195</ele>
        <time>2012-07-21T08:20:35.000Z</time>
      </trkpt>
      <trkpt lat="46.63124" lon="4.77734">
        <ele>195</ele>
        <time>2012-07-21T08:20:47.000Z</time>
      </trkpt>
      <trkpt lat="46.63099" lon="4.77792">
        <ele>195</ele>
        <time>2012-07-21T08:21:00.000Z</time>
      </trkpt>
      <trkpt lat="46.63077" lon="4.77863">
        <ele>195</ele>
        <time>2012-07-21T08:21:15.000Z</time>
      </trkpt>
      <trkpt lat="46.63074" lon="4.77879">
        <ele>195</ele>
        <time>2012-07-21T08:21:17.000Z</time>
      </trkpt>
      <trkpt lat="46.63072" lon="4.7789">
        <ele>196</ele>
        <time>2012-07-21T08:21:20.000Z</time>
      </trkpt>
      <trkpt lat="46.6307" lon="4.77919">
        <ele>196</ele>
        <time>2012-07-21T08:21:26.000Z</time>
      </trkpt>
      <trkpt lat="46.63069" lon="4.77932">
        <ele>197</ele>
        <time>2012-07-21T08:21:29.000Z</time>
      </trkpt>
      <trkpt lat="46.63067" lon="4.77963">
        <ele>198</ele>
        <time>2012-07-21T08:21:36.000Z</time>
      </trkpt>
      <trkpt lat="46.6307" lon="4.77974">
        <ele>198</ele>
        <time>2012-07-21T08:21:38.000Z</time>
      </trkpt>
      <trkpt lat="46.6307" lon="4.77983">
        <ele>199</ele>
        <time>2012-07-21T08:21:41.000Z</time>
      </trkpt>
      <trkpt lat="46.63069" lon="4.78013">
        <ele>200</ele>
        <time>2012-07-21T08:21:47.000Z</time>
      </trkpt>
      <trkpt lat="46.63067" lon="4.78042">
        <ele>201</ele>
        <time>2012-07-21T08:21:52.000Z</time>
      </trkpt>
      <trkpt lat="46.63063" lon="4.78115">
        <ele>202</ele>
        <time>2012-07-21T08:22:03.000Z</time>
      </trkpt>
      <trkpt lat="46.63058" lon="4.78182">
        <ele>202</ele>
        <time>2012-07-21T08:22:13.000Z</time>
      </trkpt>
      <trkpt lat="46.63051" lon="4.78244">
        <ele>203</ele>
        <time>2012-07-21T08:22:23.000Z</time>
      </trkpt>
      <trkpt lat="46.63044" lon="4.78264">
        <ele>202</ele>
        <time>2012-07-21T08:22:26.000Z</time>
      </trkpt>
      <trkpt lat="46.63034" lon="4.78314">
        <ele>202</ele>
        <time>2012-07-21T08:22:33.000Z</time>
      </trkpt>
      <trkpt lat="46.63033" lon="4.78335">
        <ele>201</ele>
        <time>2012-07-21T08:22:35.000Z</time>
      </trkpt>
      <trkpt lat="46.63025" lon="4.78403">
        <ele>201</ele>
        <time>2012-07-21T08:22:46.000Z</time>
      </trkpt>
      <trkpt lat="46.63022" lon="4.7842">
        <ele>200</ele>
        <time>2012-07-21T08:22:49.000Z</time>
      </trkpt>
      <trkpt lat="46.63022" lon="4.78431">
        <ele>200</ele>
        <time>2012-07-21T08:22:51.000Z</time>
      </trkpt>
      <trkpt lat="46.6302" lon="4.78444">
        <ele>200</ele>
        <time>2012-07-21T08:22:53.000Z</time>
      </trkpt>
      <trkpt lat="46.63016" lon="4.7848">
        <ele>199</ele>
        <time>2012-07-21T08:22:59.000Z</time>
      </trkpt>
      <trkpt lat="46.63013" lon="4.78491">
        <ele>199</ele>
        <time>2012-07-21T08:23:01.000Z</time>
      </trkpt>
      <trkpt lat="46.62992" lon="4.78556">
        <ele>199</ele>
        <time>2012-07-21T08:23:10.000Z</time>
      </trkpt>
      <trkpt lat="46.62982" lon="4.7858">
        <ele>199</ele>
        <time>2012-07-21T08:23:15.000Z</time>
      </trkpt>
      <trkpt lat="46.62978" lon="4.78585">
        <ele>200</ele>
        <time>2012-07-21T08:23:22.000Z</time>
      </trkpt>
      <trkpt lat="46.62978" lon="4.78578">
        <ele>200</ele>
        <time>2012-07-21T08:23:24.000Z</time>
      </trkpt>
      <trkpt lat="46.62977" lon="4.78575">
        <ele>199</ele>
        <time>2012-07-21T08:23:27.000Z</time>
      </trkpt>
      <trkpt lat="46.62976" lon="4.78576">
        <ele>199</ele>
        <time>2012-07-21T08:23:30.000Z</time>
      </trkpt>
      <trkpt lat="46.62973" lon="4.78577">
        <ele>199</ele>
        <time>2012-07-21T08:23:32.000Z</time>
      </trkpt>
      <trkpt lat="46.62968" lon="4.78573">
        <ele>199</ele>
        <time>2012-07-21T08:23:35.000Z</time>
      </trkpt>
      <trkpt lat="46.62948" lon="4.78547">
        <ele>199</ele>
        <time>2012-07-21T08:23:45.000Z</time>
      </trkpt>
      <trkpt lat="46.62931" lon="4.78525">
        <ele>198</ele>
        <time>2012-07-21T08:23:51.000Z</time>
      </trkpt>
      <trkpt lat="46.62925" lon="4.78519">
        <ele>198</ele>
        <time>2012-07-21T08:23:53.000Z</time>
      </trkpt>
      <trkpt lat="46.62917" lon="4.78509">
        <ele>198</ele>
        <time>2012-07-21T08:23:56.000Z</time>
      </trkpt>
      <trkpt lat="46.62912" lon="4.78502">
        <ele>198</ele>
        <time>2012-07-21T08:23:58.000Z</time>
      </trkpt>
      <trkpt lat="46.62879" lon="4.78454">
        <ele>198</ele>
        <time>2012-07-21T08:24:13.000Z</time>
      </trkpt>
      <trkpt lat="46.62871" lon="4.78442">
        <ele>199</ele>
        <time>2012-07-21T08:24:16.000Z</time>
      </trkpt>
      <trkpt lat="46.62835" lon="4.78386">
        <ele>199</ele>
        <time>2012-07-21T08:24:28.000Z</time>
      </trkpt>
      <trkpt lat="46.62825" lon="4.78374">
        <ele>198</ele>
        <time>2012-07-21T08:24:31.000Z</time>
      </trkpt>
      <trkpt lat="46.62793" lon="4.78324">
        <ele>198</ele>
        <time>2012-07-21T08:24:44.000Z</time>
      </trkpt>
      <trkpt lat="46.6278" lon="4.78296">
        <ele>198</ele>
        <time>2012-07-21T08:24:50.000Z</time>
      </trkpt>
      <trkpt lat="46.62759" lon="4.78263">
        <ele>198</ele>
        <time>2012-07-21T08:24:57.000Z</time>
      </trkpt>
      <trkpt lat="46.62729" lon="4.78215">
        <ele>199</ele>
        <time>2012-07-21T08:25:09.000Z</time>
      </trkpt>
      <trkpt lat="46.62722" lon="4.78206">
        <ele>199</ele>
        <time>2012-07-21T08:25:12.000Z</time>
      </trkpt>
      <trkpt lat="46.62717" lon="4.782">
        <ele>200</ele>
        <time>2012-07-21T08:25:15.000Z</time>
      </trkpt>
      <trkpt lat="46.627" lon="4.78177">
        <ele>201</ele>
        <time>2012-07-21T08:25:20.000Z</time>
      </trkpt>
      <trkpt lat="46.62691" lon="4.78162">
        <ele>202</ele>
        <time>2012-07-21T08:25:23.000Z</time>
      </trkpt>
      <trkpt lat="46.62684" lon="4.78137">
        <ele>202</ele>
        <time>2012-07-21T08:25:26.000Z</time>
      </trkpt>
      <trkpt lat="46.62679" lon="4.78127">
        <ele>203</ele>
        <time>2012-07-21T08:25:28.000Z</time>
      </trkpt>
      <trkpt lat="46.62674" lon="4.78112">
        <ele>203</ele>
        <time>2012-07-21T08:25:31.000Z</time>
      </trkpt>
      <trkpt lat="46.6267" lon="4.78104">
        <ele>204</ele>
        <time>2012-07-21T08:25:34.000Z</time>
      </trkpt>
      <trkpt lat="46.62664" lon="4.78097">
        <ele>204</ele>
        <time>2012-07-21T08:25:36.000Z</time>
      </trkpt>
      <trkpt lat="46.62657" lon="4.78086">
        <ele>204</ele>
        <time>2012-07-21T08:25:38.000Z</time>
      </trkpt>
      <trkpt lat="46.62652" lon="4.7808">
        <ele>204</ele>
        <time>2012-07-21T08:25:40.000Z</time>
      </trkpt>
      <trkpt lat="46.62647" lon="4.78076">
        <ele>204</ele>
        <time>2012-07-21T08:25:42.000Z</time>
      </trkpt>
      <trkpt lat="46.62642" lon="4.78068">
        <ele>204</ele>
        <time>2012-07-21T08:25:46.000Z</time>
      </trkpt>
      <trkpt lat="46.62608" lon="4.78014">
        <ele>204</ele>
        <time>2012-07-21T08:25:59.000Z</time>
      </trkpt>
      <trkpt lat="46.62597" lon="4.77994">
        <ele>205</ele>
        <time>2012-07-21T08:26:04.000Z</time>
      </trkpt>
      <trkpt lat="46.62592" lon="4.77988">
        <ele>205</ele>
        <time>2012-07-21T08:26:06.000Z</time>
      </trkpt>
      <trkpt lat="46.62576" lon="4.77962">
        <ele>206</ele>
        <time>2012-07-21T08:26:15.000Z</time>
      </trkpt>
      <trkpt lat="46.62569" lon="4.77946">
        <ele>206</ele>
        <time>2012-07-21T08:26:19.000Z</time>
      </trkpt>
      <trkpt lat="46.62558" lon="4.77927">
        <ele>206</ele>
        <time>2012-07-21T08:26:24.000Z</time>
      </trkpt>
      <trkpt lat="46.62528" lon="4.77881">
        <ele>207</ele>
        <time>2012-07-21T08:26:36.000Z</time>
      </trkpt>
      <trkpt lat="46.62522" lon="4.77874">
        <ele>207</ele>
        <time>2012-07-21T08:26:38.000Z</time>
      </trkpt>
      <trkpt lat="46.62497" lon="4.77837">
        <ele>207</ele>
        <time>2012-07-21T08:26:50.000Z</time>
      </trkpt>
      <trkpt lat="46.62492" lon="4.77825">
        <ele>207</ele>
        <time>2012-07-21T08:26:53.000Z</time>
      </trkpt>
      <trkpt lat="46.62487" lon="4.77818">
        <ele>207</ele>
        <time>2012-07-21T08:26:55.000Z</time>
      </trkpt>
      <trkpt lat="46.62455" lon="4.77772">
        <ele>207</ele>
        <time>2012-07-21T08:27:07.000Z</time>
      </trkpt>
      <trkpt lat="46.6245" lon="4.77761">
        <ele>207</ele>
        <time>2012-07-21T08:27:10.000Z</time>
      </trkpt>
      <trkpt lat="46.62446" lon="4.77744">
        <ele>207</ele>
        <time>2012-07-21T08:27:13.000Z</time>
      </trkpt>
      <trkpt lat="46.62433" lon="4.77711">
        <ele>207</ele>
        <time>2012-07-21T08:27:20.000Z</time>
      </trkpt>
      <trkpt lat="46.62427" lon="4.77698">
        <ele>208</ele>
        <time>2012-07-21T08:27:22.000Z</time>
      </trkpt>
      <trkpt lat="46.62397" lon="4.77636">
        <ele>208</ele>
        <time>2012-07-21T08:27:38.000Z</time>
      </trkpt>
      <trkpt lat="46.62367" lon="4.77585">
        <ele>208</ele>
        <time>2012-07-21T08:27:51.000Z</time>
      </trkpt>
      <trkpt lat="46.62364" lon="4.77575">
        <ele>208</ele>
        <time>2012-07-21T08:27:54.000Z</time>
      </trkpt>
      <trkpt lat="46.62359" lon="4.77565">
        <ele>208</ele>
        <time>2012-07-21T08:27:56.000Z</time>
      </trkpt>
      <trkpt lat="46.62353" lon="4.77557">
        <ele>208</ele>
        <time>2012-07-21T08:27:59.000Z</time>
      </trkpt>
      <trkpt lat="46.62344" lon="4.77548">
        <ele>208</ele>
        <time>2012-07-21T08:28:04.000Z</time>
      </trkpt>
      <trkpt lat="46.62341" lon="4.77546">
        <ele>208</ele>
        <time>2012-07-21T08:28:06.000Z</time>
      </trkpt>
      <trkpt lat="46.62337" lon="4.77542">
        <ele>208</ele>
        <time>2012-07-21T08:28:10.000Z</time>
      </trkpt>
      <trkpt lat="46.62332" lon="4.77535">
        <ele>209</ele>
        <time>2012-07-21T08:28:15.000Z</time>
      </trkpt>
      <trkpt lat="46.62329" lon="4.7753">
        <ele>209</ele>
        <time>2012-07-21T08:28:18.000Z</time>
      </trkpt>
      <trkpt lat="46.62326" lon="4.77522">
        <ele>209</ele>
        <time>2012-07-21T08:28:34.000Z</time>
      </trkpt>
      <trkpt lat="46.62326" lon="4.77522">
        <ele>209</ele>
        <time>2012-07-21T08:28:54.000Z</time>
      </trkpt>
      <trkpt lat="46.62328" lon="4.77523">
        <ele>209</ele>
        <time>2012-07-21T08:29:51.000Z</time>
      </trkpt>
      <trkpt lat="46.62328" lon="4.77522">
        <ele>209</ele>
        <time>2012-07-21T08:29:54.000Z</time>
      </trkpt>
      <trkpt lat="46.62328" lon="4.77522">
        <ele>209</ele>
        <time>2012-07-21T08:30:14.000Z</time>
      </trkpt>
      <trkpt lat="46.6233" lon="4.77522">
        <ele>209</ele>
        <time>2012-07-21T08:31:25.000Z</time>
      </trkpt>
      <trkpt lat="46.62331" lon="4.77524">
        <ele>209</ele>
        <time>2012-07-21T08:31:28.000Z</time>
      </trkpt>
      <trkpt lat="46.62331" lon="4.77525">
        <ele>209</ele>
        <time>2012-07-21T08:31:30.000Z</time>
      </trkpt>
      <trkpt lat="46.62329" lon="4.77523">
        <ele>209</ele>
        <time>2012-07-21T08:31:40.000Z</time>
      </trkpt>
      <trkpt lat="46.62325" lon="4.77519">
        <ele>209</ele>
        <time>2012-07-21T08:31:54.000Z</time>
      </trkpt>
      <trkpt lat="46.62325" lon="4.77518">
        <ele>209</ele>
        <time>2012-07-21T08:31:59.000Z</time>
      </trkpt>
      <trkpt lat="46.62319" lon="4.77507">
        <ele>209</ele>
        <time>2012-07-21T08:32:07.000Z</time>
      </trkpt>
      <trkpt lat="46.62313" lon="4.77502">
        <ele>209</ele>
        <time>2012-07-21T08:32:10.000Z</time>
      </trkpt>
      <trkpt lat="46.62309" lon="4.77497">
        <ele>209</ele>
        <time>2012-07-21T08:32:12.000Z</time>
      </trkpt>
      <trkpt lat="46.62297" lon="4.77484">
        <ele>210</ele>
        <time>2012-07-21T08:32:17.000Z</time>
      </trkpt>
      <trkpt lat="46.6229" lon="4.7748">
        <ele>210</ele>
        <time>2012-07-21T08:32:22.000Z</time>
      </trkpt>
      <trkpt lat="46.62287" lon="4.77482">
        <ele>210</ele>
        <time>2012-07-21T08:32:24.000Z</time>
      </trkpt>
      <trkpt lat="46.6228" lon="4.77477">
        <ele>210</ele>
        <time>2012-07-21T08:32:28.000Z</time>
      </trkpt>
      <trkpt lat="46.62272" lon="4.77464">
        <ele>210</ele>
        <time>2012-07-21T08:32:30.000Z</time>
      </trkpt>
      <trkpt lat="46.62241" lon="4.77414">
        <ele>210</ele>
        <time>2012-07-21T08:32:42.000Z</time>
      </trkpt>
      <trkpt lat="46.6221" lon="4.77365">
        <ele>210</ele>
        <time>2012-07-21T08:32:55.000Z</time>
      </trkpt>
      <trkpt lat="46.62202" lon="4.77353">
        <ele>209</ele>
        <time>2012-07-21T08:33:01.000Z</time>
      </trkpt>
      <trkpt lat="46.6217" lon="4.77292">
        <ele>209</ele>
        <time>2012-07-21T08:33:20.000Z</time>
      </trkpt>
      <trkpt lat="46.62137" lon="4.77248">
        <ele>209</ele>
        <time>2012-07-21T08:33:34.000Z</time>
      </trkpt>
      <trkpt lat="46.62131" lon="4.77244">
        <ele>209</ele>
        <time>2012-07-21T08:33:36.000Z</time>
      </trkpt>
      <trkpt lat="46.62103" lon="4.7723">
        <ele>208</ele>
        <time>2012-07-21T08:33:45.000Z</time>
      </trkpt>
      <trkpt lat="46.62096" lon="4.77224">
        <ele>208</ele>
        <time>2012-07-21T08:33:47.000Z</time>
      </trkpt>
      <trkpt lat="46.6205" lon="4.77196">
        <ele>208</ele>
        <time>2012-07-21T08:34:06.000Z</time>
      </trkpt>
      <trkpt lat="46.62004" lon="4.77168">
        <ele>208</ele>
        <time>2012-07-21T08:34:18.000Z</time>
      </trkpt>
      <trkpt lat="46.61997" lon="4.77162">
        <ele>208</ele>
        <time>2012-07-21T08:34:21.000Z</time>
      </trkpt>
      <trkpt lat="46.61951" lon="4.77129">
        <ele>207</ele>
        <time>2012-07-21T08:34:36.000Z</time>
      </trkpt>
      <trkpt lat="46.61942" lon="4.77126">
        <ele>207</ele>
        <time>2012-07-21T08:34:39.000Z</time>
      </trkpt>
      <trkpt lat="46.61897" lon="4.77106">
        <ele>207</ele>
        <time>2012-07-21T08:34:52.000Z</time>
      </trkpt>
      <trkpt lat="46.61883" lon="4.77098">
        <ele>207</ele>
        <time>2012-07-21T08:34:55.000Z</time>
      </trkpt>
      <trkpt lat="46.61863" lon="4.77083">
        <ele>206</ele>
        <time>2012-07-21T08:35:02.000Z</time>
      </trkpt>
      <trkpt lat="46.61832" lon="4.77065">
        <ele>206</ele>
        <time>2012-07-21T08:35:12.000Z</time>
      </trkpt>
      <trkpt lat="46.61803" lon="4.77041">
        <ele>206</ele>
        <time>2012-07-21T08:35:25.000Z</time>
      </trkpt>
      <trkpt lat="46.6179" lon="4.77031">
        <ele>207</ele>
        <time>2012-07-21T08:35:30.000Z</time>
      </trkpt>
      <trkpt lat="46.61786" lon="4.77027">
        <ele>207</ele>
        <time>2012-07-21T08:35:32.000Z</time>
      </trkpt>
      <trkpt lat="46.61784" lon="4.77026">
        <ele>207</ele>
        <time>2012-07-21T08:35:44.000Z</time>
      </trkpt>
      <trkpt lat="46.61785" lon="4.77022">
        <ele>207</ele>
        <time>2012-07-21T08:35:47.000Z</time>
      </trkpt>
      <trkpt lat="46.61782" lon="4.77017">
        <ele>207</ele>
        <time>2012-07-21T08:35:49.000Z</time>
      </trkpt>
      <trkpt lat="46.61774" lon="4.77012">
        <ele>207</ele>
        <time>2012-07-21T08:35:51.000Z</time>
      </trkpt>
      <trkpt lat="46.61764" lon="4.77008">
        <ele>207</ele>
        <time>2012-07-21T08:35:54.000Z</time>
      </trkpt>
      <trkpt lat="46.61757" lon="4.77006">
        <ele>206</ele>
        <time>2012-07-21T08:35:56.000Z</time>
      </trkpt>
      <trkpt lat="46.61712" lon="4.7699">
        <ele>206</ele>
        <time>2012-07-21T08:36:18.000Z</time>
      </trkpt>
      <trkpt lat="46.61707" lon="4.76986">
        <ele>206</ele>
        <time>2012-07-21T08:36:20.000Z</time>
      </trkpt>
      <trkpt lat="46.61704" lon="4.76982">
        <ele>206</ele>
        <time>2012-07-21T08:36:23.000Z</time>
      </trkpt>
      <trkpt lat="46.61698" lon="4.76976">
        <ele>206</ele>
        <time>2012-07-21T08:36:26.000Z</time>
      </trkpt>
      <trkpt lat="46.61687" lon="4.76967">
        <ele>207</ele>
        <time>2012-07-21T08:36:30.000Z</time>
      </trkpt>
      <trkpt lat="46.61682" lon="4.76966">
        <ele>207</ele>
        <time>2012-07-21T08:36:32.000Z</time>
      </trkpt>
      <trkpt lat="46.61668" lon="4.76959">
        <ele>207</ele>
        <time>2012-07-21T08:36:39.000Z</time>
      </trkpt>
      <trkpt lat="46.61665" lon="4.76957">
        <ele>207</ele>
        <time>2012-07-21T08:36:42.000Z</time>
      </trkpt>
      <trkpt lat="46.6165" lon="4.76949">
        <ele>207</ele>
        <time>2012-07-21T08:36:53.000Z</time>
      </trkpt>
      <trkpt lat="46.61644" lon="4.76947">
        <ele>207</ele>
        <time>2012-07-21T08:36:56.000Z</time>
      </trkpt>
      <trkpt lat="46.61638" lon="4.76943">
        <ele>207</ele>
        <time>2012-07-21T08:36:59.000Z</time>
      </trkpt>
      <trkpt lat="46.61635" lon="4.76941">
        <ele>207</ele>
        <time>2012-07-21T08:37:02.000Z</time>
      </trkpt>
      <trkpt lat="46.61613" lon="4.76929">
        <ele>208</ele>
        <time>2012-07-21T08:37:15.000Z</time>
      </trkpt>
      <trkpt lat="46.61565" lon="4.769">
        <ele>208</ele>
        <time>2012-07-21T08:37:32.000Z</time>
      </trkpt>
      <trkpt lat="46.61551" lon="4.76892">
        <ele>207</ele>
        <time>2012-07-21T08:37:38.000Z</time>
      </trkpt>
      <trkpt lat="46.61527" lon="4.76882">
        <ele>207</ele>
        <time>2012-07-21T08:37:48.000Z</time>
      </trkpt>
      <trkpt lat="46.61524" lon="4.7688">
        <ele>206</ele>
        <time>2012-07-21T08:37:50.000Z</time>
      </trkpt>
      <trkpt lat="46.61521" lon="4.76878">
        <ele>206</ele>
        <time>2012-07-21T08:37:52.000Z</time>
      </trkpt>
      <trkpt lat="46.61502" lon="4.76864">
        <ele>205</ele>
        <time>2012-07-21T08:38:03.000Z</time>
      </trkpt>
      <trkpt lat="46.61496" lon="4.76861">
        <ele>205</ele>
        <time>2012-07-21T08:38:06.000Z</time>
      </trkpt>
      <trkpt lat="46.61488" lon="4.76853">
        <ele>205</ele>
        <time>2012-07-21T08:38:09.000Z</time>
      </trkpt>
      <trkpt lat="46.6146" lon="4.76834">
        <ele>206</ele>
        <time>2012-07-21T08:38:22.000Z</time>
      </trkpt>
      <trkpt lat="46.61454" lon="4.76828">
        <ele>206</ele>
        <time>2012-07-21T08:38:27.000Z</time>
      </trkpt>
      <trkpt lat="46.61452" lon="4.76825">
        <ele>207</ele>
        <time>2012-07-21T08:38:29.000Z</time>
      </trkpt>
      <trkpt lat="46.61446" lon="4.76819">
        <ele>207</ele>
        <time>2012-07-21T08:38:33.000Z</time>
      </trkpt>
      <trkpt lat="46.61437" lon="4.76815">
        <ele>207</ele>
        <time>2012-07-21T08:38:36.000Z</time>
      </trkpt>
      <trkpt lat="46.61427" lon="4.76811">
        <ele>208</ele>
        <time>2012-07-21T08:38:39.000Z</time>
      </trkpt>
      <trkpt lat="46.61412" lon="4.76807">
        <ele>209</ele>
        <time>2012-07-21T08:38:43.000Z</time>
      </trkpt>
      <trkpt lat="46.61407" lon="4.76804">
        <ele>210</ele>
        <time>2012-07-21T08:38:46.000Z</time>
      </trkpt>
      <trkpt lat="46.61397" lon="4.76797">
        <ele>211</ele>
        <time>2012-07-21T08:38:51.000Z</time>
      </trkpt>
      <trkpt lat="46.61378" lon="4.76787">
        <ele>212</ele>
        <time>2012-07-21T08:38:58.000Z</time>
      </trkpt>
      <trkpt lat="46.6137" lon="4.76785">
        <ele>212</ele>
        <time>2012-07-21T08:39:01.000Z</time>
      </trkpt>
      <trkpt lat="46.61361" lon="4.76779">
        <ele>212</ele>
        <time>2012-07-21T08:39:04.000Z</time>
      </trkpt>
      <trkpt lat="46.61356" lon="4.76775">
        <ele>213</ele>
        <time>2012-07-21T08:39:06.000Z</time>
      </trkpt>
      <trkpt lat="46.61345" lon="4.7677">
        <ele>213</ele>
        <time>2012-07-21T08:39:08.000Z</time>
      </trkpt>
      <trkpt lat="46.61332" lon="4.76765">
        <ele>213</ele>
        <time>2012-07-21T08:39:11.000Z</time>
      </trkpt>
      <trkpt lat="46.61324" lon="4.76764">
        <ele>214</ele>
        <time>2012-07-21T08:39:13.000Z</time>
      </trkpt>
      <trkpt lat="46.61311" lon="4.76758">
        <ele>214</ele>
        <time>2012-07-21T08:39:17.000Z</time>
      </trkpt>
      <trkpt lat="46.61299" lon="4.7675">
        <ele>214</ele>
        <time>2012-07-21T08:39:20.000Z</time>
      </trkpt>
      <trkpt lat="46.61292" lon="4.76745">
        <ele>213</ele>
        <time>2012-07-21T08:39:22.000Z</time>
      </trkpt>
      <trkpt lat="46.61259" lon="4.76722">
        <ele>212</ele>
        <time>2012-07-21T08:39:35.000Z</time>
      </trkpt>
      <trkpt lat="46.61256" lon="4.76719">
        <ele>212</ele>
        <time>2012-07-21T08:39:38.000Z</time>
      </trkpt>
      <trkpt lat="46.61244" lon="4.76712">
        <ele>212</ele>
        <time>2012-07-21T08:39:43.000Z</time>
      </trkpt>
      <trkpt lat="46.61238" lon="4.7671">
        <ele>212</ele>
        <time>2012-07-21T08:39:45.000Z</time>
      </trkpt>
      <trkpt lat="46.61232" lon="4.76705">
        <ele>212</ele>
        <time>2012-07-21T08:39:47.000Z</time>
      </trkpt>
      <trkpt lat="46.61226" lon="4.76702">
        <ele>212</ele>
        <time>2012-07-21T08:39:50.000Z</time>
      </trkpt>
      <trkpt lat="46.61221" lon="4.767">
        <ele>211</ele>
        <time>2012-07-21T08:39:53.000Z</time>
      </trkpt>
      <trkpt lat="46.61201" lon="4.76686">
        <ele>211</ele>
        <time>2012-07-21T08:40:00.000Z</time>
      </trkpt>
      <trkpt lat="46.61197" lon="4.76684">
        <ele>212</ele>
        <time>2012-07-21T08:40:02.000Z</time>
      </trkpt>
      <trkpt lat="46.61191" lon="4.76683">
        <ele>212</ele>
        <time>2012-07-21T08:40:06.000Z</time>
      </trkpt>
      <trkpt lat="46.61185" lon="4.7668">
        <ele>212</ele>
        <time>2012-07-21T08:40:08.000Z</time>
      </trkpt>
      <trkpt lat="46.61168" lon="4.76676">
        <ele>212</ele>
        <time>2012-07-21T08:40:13.000Z</time>
      </trkpt>
      <trkpt lat="46.61155" lon="4.7667">
        <ele>212</ele>
        <time>2012-07-21T08:40:19.000Z</time>
      </trkpt>
      <trkpt lat="46.61148" lon="4.76663">
        <ele>212</ele>
        <time>2012-07-21T08:40:22.000Z</time>
      </trkpt>
      <trkpt lat="46.61126" lon="4.76647">
        <ele>213</ele>
        <time>2012-07-21T08:40:30.000Z</time>
      </trkpt>
      <trkpt lat="46.61108" lon="4.76636">
        <ele>213</ele>
        <time>2012-07-21T08:40:36.000Z</time>
      </trkpt>
      <trkpt lat="46.61066" lon="4.76611">
        <ele>213</ele>
        <time>2012-07-21T08:40:48.000Z</time>
      </trkpt>
      <trkpt lat="46.61062" lon="4.76607">
        <ele>213</ele>
        <time>2012-07-21T08:40:50.000Z</time>
      </trkpt>
      <trkpt lat="46.61044" lon="4.76596">
        <ele>213</ele>
        <time>2012-07-21T08:41:01.000Z</time>
      </trkpt>
      <trkpt lat="46.61037" lon="4.76587">
        <ele>213</ele>
        <time>2012-07-21T08:41:06.000Z</time>
      </trkpt>
      <trkpt lat="46.61016" lon="4.76567">
        <ele>213</ele>
        <time>2012-07-21T08:41:13.000Z</time>
      </trkpt>
      <trkpt lat="46.61005" lon="4.76564">
        <ele>213</ele>
        <time>2012-07-21T08:41:15.000Z</time>
      </trkpt>
      <trkpt lat="46.6095" lon="4.76547">
        <ele>213</ele>
        <time>2012-07-21T08:41:24.000Z</time>
      </trkpt>
      <trkpt lat="46.60928" lon="4.76533">
        <ele>213</ele>
        <time>2012-07-21T08:41:27.000Z</time>
      </trkpt>
      <trkpt lat="46.60913" lon="4.76525">
        <ele>212</ele>
        <time>2012-07-21T08:41:29.000Z</time>
      </trkpt>
      <trkpt lat="46.60857" lon="4.76495">
        <ele>211</ele>
        <time>2012-07-21T08:41:37.000Z</time>
      </trkpt>
      <trkpt lat="46.6081" lon="4.76473">
        <ele>211</ele>
        <time>2012-07-21T08:41:45.000Z</time>
      </trkpt>
      <trkpt lat="46.60803" lon="4.76464">
        <ele>212</ele>
        <time>2012-07-21T08:41:48.000Z</time>
      </trkpt>
      <trkpt lat="46.60795" lon="4.76453">
        <ele>213</ele>
        <time>2012-07-21T08:41:55.000Z</time>
      </trkpt>
      <trkpt lat="46.60794" lon="4.76454">
        <ele>213</ele>
        <time>2012-07-21T08:41:58.000Z</time>
      </trkpt>
      <trkpt lat="46.60793" lon="4.76454">
        <ele>213</ele>
        <time>2012-07-21T08:42:01.000Z</time>
      </trkpt>
      <trkpt lat="46.60793" lon="4.76453">
        <ele>213</ele>
        <time>2012-07-21T08:42:05.000Z</time>
      </trkpt>
      <trkpt lat="46.60794" lon="4.76452">
        <ele>213</ele>
        <time>2012-07-21T08:42:07.000Z</time>
      </trkpt>
      <trkpt lat="46.60796" lon="4.7645">
        <ele>213</ele>
        <time>2012-07-21T08:42:10.000Z</time>
      </trkpt>
      <trkpt lat="46.60799" lon="4.76446">
        <ele>213</ele>
        <time>2012-07-21T08:42:13.000Z</time>
      </trkpt>
      <trkpt lat="46.60799" lon="4.76444">
        <ele>213</ele>
        <time>2012-07-21T08:42:15.000Z</time>
      </trkpt>
      <trkpt lat="46.608" lon="4.76445">
        <ele>213</ele>
        <time>2012-07-21T08:42:19.000Z</time>
      </trkpt>
      <trkpt lat="46.60802" lon="4.76444">
        <ele>213</ele>
        <time>2012-07-21T08:42:21.000Z</time>
      </trkpt>
      <trkpt lat="46.60804" lon="4.76442">
        <ele>213</ele>
        <time>2012-07-21T08:42:23.000Z</time>
      </trkpt>
      <trkpt lat="46.60809" lon="4.7644">
        <ele>213</ele>
        <time>2012-07-21T08:42:26.000Z</time>
      </trkpt>
      <trkpt lat="46.6081" lon="4.76441">
        <ele>212</ele>
        <time>2012-07-21T08:42:29.000Z</time>
      </trkpt>
      <trkpt lat="46.60807" lon="4.76443">
        <ele>212</ele>
        <time>2012-07-21T08:42:32.000Z</time>
      </trkpt>
      <trkpt lat="46.60804" lon="4.76443">
        <ele>212</ele>
        <time>2012-07-21T08:42:34.000Z</time>
      </trkpt>
      <trkpt lat="46.60798" lon="4.76443">
        <ele>213</ele>
        <time>2012-07-21T08:42:39.000Z</time>
      </trkpt>
      <trkpt lat="46.60795" lon="4.76441">
        <ele>213</ele>
        <time>2012-07-21T08:42:42.000Z</time>
      </trkpt>
      <trkpt lat="46.60798" lon="4.76438">
        <ele>213</ele>
        <time>2012-07-21T08:42:53.000Z</time>
      </trkpt>
      <trkpt lat="46.60804" lon="4.76437">
        <ele>213</ele>
        <time>2012-07-21T08:42:56.000Z</time>
      </trkpt>
      <trkpt lat="46.60808" lon="4.76436">
        <ele>213</ele>
        <time>2012-07-21T08:43:02.000Z</time>
      </trkpt>
      <trkpt lat="46.60813" lon="4.76433">
        <ele>213</ele>
        <time>2012-07-21T08:43:16.000Z</time>
      </trkpt>
      <trkpt lat="46.60814" lon="4.76434">
        <ele>212</ele>
        <time>2012-07-21T08:43:18.000Z</time>
      </trkpt>
      <trkpt lat="46.60813" lon="4.76433">
        <ele>212</ele>
        <time>2012-07-21T08:43:27.000Z</time>
      </trkpt>
      <trkpt lat="46.60812" lon="4.76434">
        <ele>212</ele>
        <time>2012-07-21T08:43:29.000Z</time>
      </trkpt>
      <trkpt lat="46.6081" lon="4.76434">
        <ele>212</ele>
        <time>2012-07-21T08:43:31.000Z</time>
      </trkpt>
      <trkpt lat="46.60806" lon="4.76435">
        <ele>212</ele>
        <time>2012-07-21T08:43:36.000Z</time>
      </trkpt>
      <trkpt lat="46.60801" lon="4.76437">
        <ele>212</ele>
        <time>2012-07-21T08:43:49.000Z</time>
      </trkpt>
      <trkpt lat="46.60799" lon="4.76441">
        <ele>212</ele>
        <time>2012-07-21T08:43:52.000Z</time>
      </trkpt>
      <trkpt lat="46.60797" lon="4.76445">
        <ele>213</ele>
        <time>2012-07-21T08:43:55.000Z</time>
      </trkpt>
      <trkpt lat="46.60797" lon="4.76448">
        <ele>213</ele>
        <time>2012-07-21T08:43:58.000Z</time>
      </trkpt>
      <trkpt lat="46.60798" lon="4.76444">
        <ele>213</ele>
        <time>2012-07-21T08:44:05.000Z</time>
      </trkpt>
      <trkpt lat="46.60794" lon="4.76441">
        <ele>213</ele>
        <time>2012-07-21T08:44:16.000Z</time>
      </trkpt>
      <trkpt lat="46.60797" lon="4.76438">
        <ele>213</ele>
        <time>2012-07-21T08:44:33.000Z</time>
      </trkpt>
      <trkpt lat="46.60796" lon="4.76437">
        <ele>213</ele>
        <time>2012-07-21T08:44:38.000Z</time>
      </trkpt>
      <trkpt lat="46.60793" lon="4.76436">
        <ele>213</ele>
        <time>2012-07-21T08:44:41.000Z</time>
      </trkpt>
      <trkpt lat="46.60787" lon="4.76436">
        <ele>213</ele>
        <time>2012-07-21T08:44:44.000Z</time>
      </trkpt>
      <trkpt lat="46.60783" lon="4.76436">
        <ele>213</ele>
        <time>2012-07-21T08:44:46.000Z</time>
      </trkpt>
      <trkpt lat="46.60776" lon="4.76433">
        <ele>213</ele>
        <time>2012-07-21T08:44:49.000Z</time>
      </trkpt>
      <trkpt lat="46.60769" lon="4.7643">
        <ele>214</ele>
        <time>2012-07-21T08:44:51.000Z</time>
      </trkpt>
      <trkpt lat="46.60756" lon="4.76421">
        <ele>214</ele>
        <time>2012-07-21T08:44:58.000Z</time>
      </trkpt>
      <trkpt lat="46.60755" lon="4.7642">
        <ele>215</ele>
        <time>2012-07-21T08:45:03.000Z</time>
      </trkpt>
      <trkpt lat="46.60753" lon="4.76419">
        <ele>215</ele>
        <time>2012-07-21T08:45:05.000Z</time>
      </trkpt>
      <trkpt lat="46.60752" lon="4.76418">
        <ele>215</ele>
        <time>2012-07-21T08:45:07.000Z</time>
      </trkpt>
      <trkpt lat="46.60752" lon="4.76416">
        <ele>215</ele>
        <time>2012-07-21T08:45:09.000Z</time>
      </trkpt>
      <trkpt lat="46.60752" lon="4.76411">
        <ele>215</ele>
        <time>2012-07-21T08:45:12.000Z</time>
      </trkpt>
      <trkpt lat="46.60749" lon="4.7641">
        <ele>215</ele>
        <time>2012-07-21T08:45:15.000Z</time>
      </trkpt>
      <trkpt lat="46.60747" lon="4.76409">
        <ele>215</ele>
        <time>2012-07-21T08:45:18.000Z</time>
      </trkpt>
      <trkpt lat="46.60744" lon="4.76409">
        <ele>215</ele>
        <time>2012-07-21T08:45:22.000Z</time>
      </trkpt>
      <trkpt lat="46.60746" lon="4.7641">
        <ele>215</ele>
        <time>2012-07-21T08:45:24.000Z</time>
      </trkpt>
      <trkpt lat="46.60751" lon="4.76411">
        <ele>215</ele>
        <time>2012-07-21T08:45:27.000Z</time>
      </trkpt>
      <trkpt lat="46.60749" lon="4.76411">
        <ele>215</ele>
        <time>2012-07-21T08:45:30.000Z</time>
      </trkpt>
      <trkpt lat="46.60743" lon="4.76409">
        <ele>215</ele>
        <time>2012-07-21T08:45:32.000Z</time>
      </trkpt>
      <trkpt lat="46.60698" lon="4.76389">
        <ele>215</ele>
        <time>2012-07-21T08:45:45.000Z</time>
      </trkpt>
      <trkpt lat="46.60674" lon="4.76364">
        <ele>215</ele>
        <time>2012-07-21T08:45:49.000Z</time>
      </trkpt>
      <trkpt lat="46.60661" lon="4.76357">
        <ele>215</ele>
        <time>2012-07-21T08:45:51.000Z</time>
      </trkpt>
      <trkpt lat="46.60642" lon="4.76346">
        <ele>216</ele>
        <time>2012-07-21T08:45:54.000Z</time>
      </trkpt>
      <trkpt lat="46.60608" lon="4.76329">
        <ele>217</ele>
        <time>2012-07-21T08:45:59.000Z</time>
      </trkpt>
      <trkpt lat="46.60578" lon="4.76314">
        <ele>218</ele>
        <time>2012-07-21T08:46:04.000Z</time>
      </trkpt>
      <trkpt lat="46.60566" lon="4.76308">
        <ele>219</ele>
        <time>2012-07-21T08:46:07.000Z</time>
      </trkpt>
      <trkpt lat="46.60559" lon="4.76305">
        <ele>219</ele>
        <time>2012-07-21T08:46:09.000Z</time>
      </trkpt>
      <trkpt lat="46.60544" lon="4.76297">
        <ele>219</ele>
        <time>2012-07-21T08:46:14.000Z</time>
      </trkpt>
      <trkpt lat="46.60493" lon="4.76269">
        <ele>219</ele>
        <time>2012-07-21T08:46:32.000Z</time>
      </trkpt>
      <trkpt lat="46.60489" lon="4.76265">
        <ele>219</ele>
        <time>2012-07-21T08:46:34.000Z</time>
      </trkpt>
      <trkpt lat="46.60452" lon="4.76245">
        <ele>219</ele>
        <time>2012-07-21T08:46:54.000Z</time>
      </trkpt>
      <trkpt lat="46.60448" lon="4.76244">
        <ele>219</ele>
        <time>2012-07-21T08:46:57.000Z</time>
      </trkpt>
      <trkpt lat="46.6044" lon="4.76242">
        <ele>219</ele>
        <time>2012-07-21T08:47:02.000Z</time>
      </trkpt>
      <trkpt lat="46.60434" lon="4.76238">
        <ele>219</ele>
        <time>2012-07-21T08:47:05.000Z</time>
      </trkpt>
      <trkpt lat="46.60426" lon="4.76232">
        <ele>219</ele>
        <time>2012-07-21T08:47:08.000Z</time>
      </trkpt>
      <trkpt lat="46.60421" lon="4.76226">
        <ele>219</ele>
        <time>2012-07-21T08:47:10.000Z</time>
      </trkpt>
      <trkpt lat="46.60415" lon="4.76221">
        <ele>219</ele>
        <time>2012-07-21T08:47:13.000Z</time>
      </trkpt>
      <trkpt lat="46.60405" lon="4.7621">
        <ele>219</ele>
        <time>2012-07-21T08:47:18.000Z</time>
      </trkpt>
      <trkpt lat="46.60402" lon="4.76205">
        <ele>219</ele>
        <time>2012-07-21T08:47:20.000Z</time>
      </trkpt>
      <trkpt lat="46.60397" lon="4.76198">
        <ele>218</ele>
        <time>2012-07-21T08:47:23.000Z</time>
      </trkpt>
      <trkpt lat="46.60391" lon="4.76193">
        <ele>218</ele>
        <time>2012-07-21T08:47:26.000Z</time>
      </trkpt>
      <trkpt lat="46.60387" lon="4.76191">
        <ele>218</ele>
        <time>2012-07-21T08:47:28.000Z</time>
      </trkpt>
      <trkpt lat="46.6038" lon="4.76188">
        <ele>218</ele>
        <time>2012-07-21T08:47:31.000Z</time>
      </trkpt>
      <trkpt lat="46.60374" lon="4.76185">
        <ele>217</ele>
        <time>2012-07-21T08:47:34.000Z</time>
      </trkpt>
      <trkpt lat="46.60342" lon="4.76167">
        <ele>216</ele>
        <time>2012-07-21T08:47:49.000Z</time>
      </trkpt>
      <trkpt lat="46.60324" lon="4.76159">
        <ele>216</ele>
        <time>2012-07-21T08:47:56.000Z</time>
      </trkpt>
      <trkpt lat="46.60318" lon="4.76158">
        <ele>216</ele>
        <time>2012-07-21T08:47:59.000Z</time>
      </trkpt>
      <trkpt lat="46.60315" lon="4.76157">
        <ele>216</ele>
        <time>2012-07-21T08:48:02.000Z</time>
      </trkpt>
      <trkpt lat="46.60313" lon="4.76157">
        <ele>216</ele>
        <time>2012-07-21T08:48:04.000Z</time>
      </trkpt>
      <trkpt lat="46.60307" lon="4.76151">
        <ele>216</ele>
        <time>2012-07-21T08:48:07.000Z</time>
      </trkpt>
      <trkpt lat="46.603" lon="4.76141">
        <ele>216</ele>
        <time>2012-07-21T08:48:10.000Z</time>
      </trkpt>
      <trkpt lat="46.60295" lon="4.76135">
        <ele>216</ele>
        <time>2012-07-21T08:48:12.000Z</time>
      </trkpt>
      <trkpt lat="46.60287" lon="4.7613">
        <ele>216</ele>
        <time>2012-07-21T08:48:15.000Z</time>
      </trkpt>
      <trkpt lat="46.6028" lon="4.76126">
        <ele>216</ele>
        <time>2012-07-21T08:48:18.000Z</time>
      </trkpt>
      <trkpt lat="46.60273" lon="4.7612">
        <ele>216</ele>
        <time>2012-07-21T08:48:21.000Z</time>
      </trkpt>
      <trkpt lat="46.60265" lon="4.76115">
        <ele>216</ele>
        <time>2012-07-21T08:48:26.000Z</time>
      </trkpt>
      <trkpt lat="46.60236" lon="4.76096">
        <ele>217</ele>
        <time>2012-07-21T08:48:39.000Z</time>
      </trkpt>
      <trkpt lat="46.60229" lon="4.76094">
        <ele>217</ele>
        <time>2012-07-21T08:48:42.000Z</time>
      </trkpt>
      <trkpt lat="46.60225" lon="4.76092">
        <ele>217</ele>
        <time>2012-07-21T08:48:45.000Z</time>
      </trkpt>
      <trkpt lat="46.60216" lon="4.76088">
        <ele>218</ele>
        <time>2012-07-21T08:48:50.000Z</time>
      </trkpt>
      <trkpt lat="46.60201" lon="4.76084">
        <ele>218</ele>
        <time>2012-07-21T08:48:58.000Z</time>
      </trkpt>
      <trkpt lat="46.60196" lon="4.76083">
        <ele>219</ele>
        <time>2012-07-21T08:49:01.000Z</time>
      </trkpt>
      <trkpt lat="46.60192" lon="4.76082">
        <ele>219</ele>
        <time>2012-07-21T08:49:03.000Z</time>
      </trkpt>
      <trkpt lat="46.6019" lon="4.76079">
        <ele>219</ele>
        <time>2012-07-21T08:49:06.000Z</time>
      </trkpt>
      <trkpt lat="46.60185" lon="4.76075">
        <ele>219</ele>
        <time>2012-07-21T08:49:09.000Z</time>
      </trkpt>
      <trkpt lat="46.60168" lon="4.76066">
        <ele>220</ele>
        <time>2012-07-21T08:49:17.000Z</time>
      </trkpt>
      <trkpt lat="46.60164" lon="4.76061">
        <ele>220</ele>
        <time>2012-07-21T08:49:20.000Z</time>
      </trkpt>
      <trkpt lat="46.60122" lon="4.7603">
        <ele>220</ele>
        <time>2012-07-21T08:49:46.000Z</time>
      </trkpt>
      <trkpt lat="46.60115" lon="4.76027">
        <ele>220</ele>
        <time>2012-07-21T08:49:49.000Z</time>
      </trkpt>
      <trkpt lat="46.6011" lon="4.76025">
        <ele>220</ele>
        <time>2012-07-21T08:49:52.000Z</time>
      </trkpt>
      <trkpt lat="46.60098" lon="4.76018">
        <ele>220</ele>
        <time>2012-07-21T08:49:57.000Z</time>
      </trkpt>
      <trkpt lat="46.60092" lon="4.76013">
        <ele>221</ele>
        <time>2012-07-21T08:50:00.000Z</time>
      </trkpt>
      <trkpt lat="46.60087" lon="4.76008">
        <ele>221</ele>
        <time>2012-07-21T08:50:03.000Z</time>
      </trkpt>
      <trkpt lat="46.60057" lon="4.75984">
        <ele>221</ele>
        <time>2012-07-21T08:50:12.000Z</time>
      </trkpt>
      <trkpt lat="46.60023" lon="4.7596">
        <ele>222</ele>
        <time>2012-07-21T08:50:17.000Z</time>
      </trkpt>
      <trkpt lat="46.5998" lon="4.75933">
        <ele>223</ele>
        <time>2012-07-21T08:50:27.000Z</time>
      </trkpt>
      <trkpt lat="46.5997" lon="4.75922">
        <ele>223</ele>
        <time>2012-07-21T08:50:30.000Z</time>
      </trkpt>
      <trkpt lat="46.59958" lon="4.75917">
        <ele>223</ele>
        <time>2012-07-21T08:50:33.000Z</time>
      </trkpt>
      <trkpt lat="46.59915" lon="4.75895">
        <ele>223</ele>
        <time>2012-07-21T08:50:47.000Z</time>
      </trkpt>
      <trkpt lat="46.59911" lon="4.75896">
        <ele>223</ele>
        <time>2012-07-21T08:50:49.000Z</time>
      </trkpt>
      <trkpt lat="46.59908" lon="4.75901">
        <ele>223</ele>
        <time>2012-07-21T08:50:52.000Z</time>
      </trkpt>
      <trkpt lat="46.59906" lon="4.75915">
        <ele>223</ele>
        <time>2012-07-21T08:50:55.000Z</time>
      </trkpt>
      <trkpt lat="46.59896" lon="4.75983">
        <ele>223</ele>
        <time>2012-07-21T08:51:13.000Z</time>
      </trkpt>
      <trkpt lat="46.59885" lon="4.76044">
        <ele>224</ele>
        <time>2012-07-21T08:51:28.000Z</time>
      </trkpt>
      <trkpt lat="46.59876" lon="4.76071">
        <ele>224</ele>
        <time>2012-07-21T08:51:36.000Z</time>
      </trkpt>
      <trkpt lat="46.59863" lon="4.76117">
        <ele>225</ele>
        <time>2012-07-21T08:51:47.000Z</time>
      </trkpt>
      <trkpt lat="46.59848" lon="4.76187">
        <ele>225</ele>
        <time>2012-07-21T08:52:04.000Z</time>
      </trkpt>
      <trkpt lat="46.59843" lon="4.762">
        <ele>225</ele>
        <time>2012-07-21T08:52:07.000Z</time>
      </trkpt>
      <trkpt lat="46.59818" lon="4.76256">
        <ele>225</ele>
        <time>2012-07-21T08:52:22.000Z</time>
      </trkpt>
      <trkpt lat="46.59813" lon="4.76269">
        <ele>225</ele>
        <time>2012-07-21T08:52:25.000Z</time>
      </trkpt>
      <trkpt lat="46.59797" lon="4.76312">
        <ele>226</ele>
        <time>2012-07-21T08:52:36.000Z</time>
      </trkpt>
      <trkpt lat="46.59792" lon="4.76322">
        <ele>226</ele>
        <time>2012-07-21T08:52:39.000Z</time>
      </trkpt>
      <trkpt lat="46.5979" lon="4.76329">
        <ele>226</ele>
        <time>2012-07-21T08:52:41.000Z</time>
      </trkpt>
      <trkpt lat="46.59778" lon="4.76358">
        <ele>226</ele>
        <time>2012-07-21T08:52:50.000Z</time>
      </trkpt>
      <trkpt lat="46.5977" lon="4.76365">
        <ele>226</ele>
        <time>2012-07-21T08:52:53.000Z</time>
      </trkpt>
      <trkpt lat="46.59762" lon="4.76369">
        <ele>226</ele>
        <time>2012-07-21T08:52:55.000Z</time>
      </trkpt>
      <trkpt lat="46.5975" lon="4.76379">
        <ele>226</ele>
        <time>2012-07-21T08:52:59.000Z</time>
      </trkpt>
      <trkpt lat="46.59746" lon="4.76385">
        <ele>226</ele>
        <time>2012-07-21T08:53:01.000Z</time>
      </trkpt>
      <trkpt lat="46.59737" lon="4.76393">
        <ele>226</ele>
        <time>2012-07-21T08:53:04.000Z</time>
      </trkpt>
      <trkpt lat="46.59729" lon="4.76397">
        <ele>226</ele>
        <time>2012-07-21T08:53:06.000Z</time>
      </trkpt>
      <trkpt lat="46.59721" lon="4.76404">
        <ele>226</ele>
        <time>2012-07-21T08:53:09.000Z</time>
      </trkpt>
      <trkpt lat="46.59717" lon="4.76408">
        <ele>226</ele>
        <time>2012-07-21T08:53:11.000Z</time>
      </trkpt>
      <trkpt lat="46.59704" lon="4.7642">
        <ele>226</ele>
        <time>2012-07-21T08:53:16.000Z</time>
      </trkpt>
      <trkpt lat="46.59689" lon="4.76431">
        <ele>225</ele>
        <time>2012-07-21T08:53:21.000Z</time>
      </trkpt>
      <trkpt lat="46.5967" lon="4.76442">
        <ele>225</ele>
        <time>2012-07-21T08:53:26.000Z</time>
      </trkpt>
      <trkpt lat="46.59655" lon="4.76451">
        <ele>224</ele>
        <time>2012-07-21T08:53:29.000Z</time>
      </trkpt>
      <trkpt lat="46.59619" lon="4.76475">
        <ele>223</ele>
        <time>2012-07-21T08:53:37.000Z</time>
      </trkpt>
      <trkpt lat="46.59603" lon="4.76487">
        <ele>222</ele>
        <time>2012-07-21T08:53:41.000Z</time>
      </trkpt>
      <trkpt lat="46.59589" lon="4.76494">
        <ele>222</ele>
        <time>2012-07-21T08:53:44.000Z</time>
      </trkpt>
      <trkpt lat="46.59567" lon="4.76503">
        <ele>221</ele>
        <time>2012-07-21T08:53:49.000Z</time>
      </trkpt>
      <trkpt lat="46.59559" lon="4.76508">
        <ele>221</ele>
        <time>2012-07-21T08:54:00.000Z</time>
      </trkpt>
      <trkpt lat="46.59558" lon="4.76508">
        <ele>221</ele>
        <time>2012-07-21T08:54:02.000Z</time>
      </trkpt>
      <trkpt lat="46.59556" lon="4.76507">
        <ele>221</ele>
        <time>2012-07-21T08:54:05.000Z</time>
      </trkpt>
      <trkpt lat="46.59555" lon="4.76506">
        <ele>221</ele>
        <time>2012-07-21T08:54:07.000Z</time>
      </trkpt>
      <trkpt lat="46.59555" lon="4.76503">
        <ele>221</ele>
        <time>2012-07-21T08:54:10.000Z</time>
      </trkpt>
      <trkpt lat="46.59558" lon="4.76501">
        <ele>221</ele>
        <time>2012-07-21T08:54:16.000Z</time>
      </trkpt>
      <trkpt lat="46.59558" lon="4.76501">
        <ele>221</ele>
        <time>2012-07-21T08:54:36.000Z</time>
      </trkpt>
      <trkpt lat="46.59556" lon="4.76502">
        <ele>221</ele>
        <time>2012-07-21T08:54:47.000Z</time>
      </trkpt>
      <trkpt lat="46.59541" lon="4.76514">
        <ele>221</ele>
        <time>2012-07-21T08:54:54.000Z</time>
      </trkpt>
      <trkpt lat="46.59517" lon="4.76528">
        <ele>221</ele>
        <time>2012-07-21T08:55:02.000Z</time>
      </trkpt>
      <trkpt lat="46.59506" lon="4.76532">
        <ele>221</ele>
        <time>2012-07-21T08:55:05.000Z</time>
      </trkpt>
      <trkpt lat="46.59491" lon="4.76541">
        <ele>221</ele>
        <time>2012-07-21T08:55:10.000Z</time>
      </trkpt>
      <trkpt lat="46.59482" lon="4.76549">
        <ele>221</ele>
        <time>2012-07-21T08:55:13.000Z</time>
      </trkpt>
      <trkpt lat="46.59476" lon="4.76556">
        <ele>221</ele>
        <time>2012-07-21T08:55:16.000Z</time>
      </trkpt>
      <trkpt lat="46.59473" lon="4.7656">
        <ele>221</ele>
        <time>2012-07-21T08:55:18.000Z</time>
      </trkpt>
      <trkpt lat="46.5947" lon="4.76563">
        <ele>221</ele>
        <time>2012-07-21T08:55:21.000Z</time>
      </trkpt>
      <trkpt lat="46.59461" lon="4.76566">
        <ele>221</ele>
        <time>2012-07-21T08:55:24.000Z</time>
      </trkpt>
      <trkpt lat="46.59443" lon="4.76573">
        <ele>220</ele>
        <time>2012-07-21T08:55:29.000Z</time>
      </trkpt>
      <trkpt lat="46.59439" lon="4.76575">
        <ele>220</ele>
        <time>2012-07-21T08:55:31.000Z</time>
      </trkpt>
      <trkpt lat="46.59435" lon="4.76578">
        <ele>220</ele>
        <time>2012-07-21T08:55:34.000Z</time>
      </trkpt>
      <trkpt lat="46.59432" lon="4.7658">
        <ele>220</ele>
        <time>2012-07-21T08:55:36.000Z</time>
      </trkpt>
      <trkpt lat="46.59431" lon="4.76581">
        <ele>220</ele>
        <time>2012-07-21T08:55:45.000Z</time>
      </trkpt>
      <trkpt lat="46.59429" lon="4.76581">
        <ele>220</ele>
        <time>2012-07-21T08:55:48.000Z</time>
      </trkpt>
      <trkpt lat="46.59428" lon="4.76584">
        <ele>219</ele>
        <time>2012-07-21T08:55:51.000Z</time>
      </trkpt>
      <trkpt lat="46.59426" lon="4.76587">
        <ele>219</ele>
        <time>2012-07-21T08:55:53.000Z</time>
      </trkpt>
      <trkpt lat="46.59422" lon="4.76598">
        <ele>219</ele>
        <time>2012-07-21T08:55:56.000Z</time>
      </trkpt>
      <trkpt lat="46.5942" lon="4.76607">
        <ele>219</ele>
        <time>2012-07-21T08:55:58.000Z</time>
      </trkpt>
      <trkpt lat="46.5942" lon="4.76629">
        <ele>219</ele>
        <time>2012-07-21T08:56:01.000Z</time>
      </trkpt>
      <trkpt lat="46.59417" lon="4.7665">
        <ele>219</ele>
        <time>2012-07-21T08:56:04.000Z</time>
      </trkpt>
      <trkpt lat="46.59411" lon="4.76673">
        <ele>218</ele>
        <time>2012-07-21T08:56:07.000Z</time>
      </trkpt>
      <trkpt lat="46.5939" lon="4.76754">
        <ele>218</ele>
        <time>2012-07-21T08:56:18.000Z</time>
      </trkpt>
      <trkpt lat="46.59385" lon="4.76767">
        <ele>217</ele>
        <time>2012-07-21T08:56:20.000Z</time>
      </trkpt>
      <trkpt lat="46.59378" lon="4.76801">
        <ele>217</ele>
        <time>2012-07-21T08:56:25.000Z</time>
      </trkpt>
      <trkpt lat="46.59376" lon="4.7683">
        <ele>216</ele>
        <time>2012-07-21T08:56:30.000Z</time>
      </trkpt>
      <trkpt lat="46.59372" lon="4.76845">
        <ele>216</ele>
        <time>2012-07-21T08:56:32.000Z</time>
      </trkpt>
      <trkpt lat="46.59359" lon="4.76883">
        <ele>215</ele>
        <time>2012-07-21T08:56:38.000Z</time>
      </trkpt>
      <trkpt lat="46.59349" lon="4.76911">
        <ele>214</ele>
        <time>2012-07-21T08:56:43.000Z</time>
      </trkpt>
      <trkpt lat="46.59341" lon="4.7694">
        <ele>213</ele>
        <time>2012-07-21T08:56:48.000Z</time>
      </trkpt>
      <trkpt lat="46.59328" lon="4.76984">
        <ele>212</ele>
        <time>2012-07-21T08:56:56.000Z</time>
      </trkpt>
      <trkpt lat="46.5932" lon="4.77012">
        <ele>211</ele>
        <time>2012-07-21T08:57:01.000Z</time>
      </trkpt>
      <trkpt lat="46.59316" lon="4.77039">
        <ele>211</ele>
        <time>2012-07-21T08:57:07.000Z</time>
      </trkpt>
      <trkpt lat="46.59314" lon="4.77048">
        <ele>212</ele>
        <time>2012-07-21T08:57:09.000Z</time>
      </trkpt>
      <trkpt lat="46.59313" lon="4.7707">
        <ele>212</ele>
        <time>2012-07-21T08:57:16.000Z</time>
      </trkpt>
      <trkpt lat="46.59317" lon="4.77078">
        <ele>213</ele>
        <time>2012-07-21T08:57:19.000Z</time>
      </trkpt>
      <trkpt lat="46.5932" lon="4.77085">
        <ele>213</ele>
        <time>2012-07-21T08:57:21.000Z</time>
      </trkpt>
      <trkpt lat="46.59325" lon="4.771">
        <ele>214</ele>
        <time>2012-07-21T08:57:26.000Z</time>
      </trkpt>
      <trkpt lat="46.59332" lon="4.77114">
        <ele>215</ele>
        <time>2012-07-21T08:57:31.000Z</time>
      </trkpt>
      <trkpt lat="46.59339" lon="4.77123">
        <ele>215</ele>
        <time>2012-07-21T08:57:34.000Z</time>
      </trkpt>
      <trkpt lat="46.59354" lon="4.77144">
        <ele>216</ele>
        <time>2012-07-21T08:57:39.000Z</time>
      </trkpt>
      <trkpt lat="46.5936" lon="4.7715">
        <ele>216</ele>
        <time>2012-07-21T08:57:41.000Z</time>
      </trkpt>
      <trkpt lat="46.59367" lon="4.77163">
        <ele>216</ele>
        <time>2012-07-21T08:57:44.000Z</time>
      </trkpt>
      <trkpt lat="46.59372" lon="4.77177">
        <ele>215</ele>
        <time>2012-07-21T08:57:46.000Z</time>
      </trkpt>
      <trkpt lat="46.5939" lon="4.77222">
        <ele>214</ele>
        <time>2012-07-21T08:57:54.000Z</time>
      </trkpt>
      <trkpt lat="46.59408" lon="4.77264">
        <ele>213</ele>
        <time>2012-07-21T08:58:02.000Z</time>
      </trkpt>
      <trkpt lat="46.59425" lon="4.77317">
        <ele>212</ele>
        <time>2012-07-21T08:58:13.000Z</time>
      </trkpt>
      <trkpt lat="46.59446" lon="4.77373">
        <ele>211</ele>
        <time>2012-07-21T08:58:23.000Z</time>
      </trkpt>
      <trkpt lat="46.59451" lon="4.77391">
        <ele>210</ele>
        <time>2012-07-21T08:58:26.000Z</time>
      </trkpt>
      <trkpt lat="46.59448" lon="4.77407">
        <ele>210</ele>
        <time>2012-07-21T08:58:29.000Z</time>
      </trkpt>
      <trkpt lat="46.5944" lon="4.77419">
        <ele>209</ele>
        <time>2012-07-21T08:58:32.000Z</time>
      </trkpt>
      <trkpt lat="46.59401" lon="4.77455">
        <ele>208</ele>
        <time>2012-07-21T08:58:37.000Z</time>
      </trkpt>
      <trkpt lat="46.59388" lon="4.7747">
        <ele>207</ele>
        <time>2012-07-21T08:58:39.000Z</time>
      </trkpt>
      <trkpt lat="46.59365" lon="4.77493">
        <ele>206</ele>
        <time>2012-07-21T08:58:42.000Z</time>
      </trkpt>
      <trkpt lat="46.59341" lon="4.77515">
        <ele>204</ele>
        <time>2012-07-21T08:58:45.000Z</time>
      </trkpt>
      <trkpt lat="46.59324" lon="4.77525">
        <ele>202</ele>
        <time>2012-07-21T08:58:47.000Z</time>
      </trkpt>
      <trkpt lat="46.59297" lon="4.77534">
        <ele>201</ele>
        <time>2012-07-21T08:58:50.000Z</time>
      </trkpt>
      <trkpt lat="46.59275" lon="4.77549">
        <ele>199</ele>
        <time>2012-07-21T08:58:53.000Z</time>
      </trkpt>
      <trkpt lat="46.59262" lon="4.77553">
        <ele>198</ele>
        <time>2012-07-21T08:58:55.000Z</time>
      </trkpt>
      <trkpt lat="46.59246" lon="4.77563">
        <ele>197</ele>
        <time>2012-07-21T08:58:58.000Z</time>
      </trkpt>
      <trkpt lat="46.59235" lon="4.77566">
        <ele>196</ele>
        <time>2012-07-21T08:59:01.000Z</time>
      </trkpt>
      <trkpt lat="46.59231" lon="4.77568">
        <ele>195</ele>
        <time>2012-07-21T08:59:04.000Z</time>
      </trkpt>
      <trkpt lat="46.59229" lon="4.77578">
        <ele>195</ele>
        <time>2012-07-21T08:59:07.000Z</time>
      </trkpt>
      <trkpt lat="46.59227" lon="4.77584">
        <ele>194</ele>
        <time>2012-07-21T08:59:09.000Z</time>
      </trkpt>
      <trkpt lat="46.59211" lon="4.77651">
        <ele>194</ele>
        <time>2012-07-21T08:59:21.000Z</time>
      </trkpt>
      <trkpt lat="46.59197" lon="4.77725">
        <ele>195</ele>
        <time>2012-07-21T08:59:36.000Z</time>
      </trkpt>
      <trkpt lat="46.59198" lon="4.77735">
        <ele>195</ele>
        <time>2012-07-21T08:59:39.000Z</time>
      </trkpt>
      <trkpt lat="46.59197" lon="4.7775">
        <ele>196</ele>
        <time>2012-07-21T08:59:45.000Z</time>
      </trkpt>
      <trkpt lat="46.59193" lon="4.77761">
        <ele>196</ele>
        <time>2012-07-21T08:59:48.000Z</time>
      </trkpt>
      <trkpt lat="46.59191" lon="4.77771">
        <ele>196</ele>
        <time>2012-07-21T08:59:51.000Z</time>
      </trkpt>
      <trkpt lat="46.59192" lon="4.77773">
        <ele>197</ele>
        <time>2012-07-21T08:59:53.000Z</time>
      </trkpt>
      <trkpt lat="46.59197" lon="4.7777">
        <ele>197</ele>
        <time>2012-07-21T08:59:56.000Z</time>
      </trkpt>
      <trkpt lat="46.59205" lon="4.77759">
        <ele>197</ele>
        <time>2012-07-21T09:00:01.000Z</time>
      </trkpt>
      <trkpt lat="46.59207" lon="4.77755">
        <ele>196</ele>
        <time>2012-07-21T09:00:03.000Z</time>
      </trkpt>
      <trkpt lat="46.59214" lon="4.77744">
        <ele>196</ele>
        <time>2012-07-21T09:00:09.000Z</time>
      </trkpt>
      <trkpt lat="46.59216" lon="4.77743">
        <ele>196</ele>
        <time>2012-07-21T09:00:11.000Z</time>
      </trkpt>
      <trkpt lat="46.59217" lon="4.77742">
        <ele>196</ele>
        <time>2012-07-21T09:00:13.000Z</time>
      </trkpt>
      <trkpt lat="46.5922" lon="4.77745">
        <ele>196</ele>
        <time>2012-07-21T09:00:16.000Z</time>
      </trkpt>
      <trkpt lat="46.5922" lon="4.77749">
        <ele>196</ele>
        <time>2012-07-21T09:00:18.000Z</time>
      </trkpt>
      <trkpt lat="46.59216" lon="4.77752">
        <ele>196</ele>
        <time>2012-07-21T09:00:21.000Z</time>
      </trkpt>
      <trkpt lat="46.59213" lon="4.77753">
        <ele>196</ele>
        <time>2012-07-21T09:00:23.000Z</time>
      </trkpt>
      <trkpt lat="46.59212" lon="4.77753">
        <ele>196</ele>
        <time>2012-07-21T09:00:25.000Z</time>
      </trkpt>
      <trkpt lat="46.5921" lon="4.77751">
        <ele>196</ele>
        <time>2012-07-21T09:00:27.000Z</time>
      </trkpt>
      <trkpt lat="46.59211" lon="4.77747">
        <ele>196</ele>
        <time>2012-07-21T09:00:30.000Z</time>
      </trkpt>
      <trkpt lat="46.59208" lon="4.77749">
        <ele>196</ele>
        <time>2012-07-21T09:00:34.000Z</time>
      </trkpt>
      <trkpt lat="46.59208" lon="4.77749">
        <ele>196</ele>
        <time>2012-07-21T09:00:36.000Z</time>
      </trkpt>
      <trkpt lat="46.59203" lon="4.77752">
        <ele>196</ele>
        <time>2012-07-21T09:00:42.000Z</time>
      </trkpt>
      <trkpt lat="46.59204" lon="4.77752">
        <ele>196</ele>
        <time>2012-07-21T09:00:49.000Z</time>
      </trkpt>
      <trkpt lat="46.59206" lon="4.77753">
        <ele>196</ele>
        <time>2012-07-21T09:00:52.000Z</time>
      </trkpt>
      <trkpt lat="46.59206" lon="4.77753">
        <ele>196</ele>
        <time>2012-07-21T09:01:12.000Z</time>
      </trkpt>
      <trkpt lat="46.59203" lon="4.77752">
        <ele>196</ele>
        <time>2012-07-21T09:02:20.000Z</time>
      </trkpt>
      <trkpt lat="46.59202" lon="4.77754">
        <ele>196</ele>
        <time>2012-07-21T09:02:22.000Z</time>
      </trkpt>
      <trkpt lat="46.59199" lon="4.77756">
        <ele>196</ele>
        <time>2012-07-21T09:02:24.000Z</time>
      </trkpt>
      <trkpt lat="46.59197" lon="4.77761">
        <ele>196</ele>
        <time>2012-07-21T09:02:27.000Z</time>
      </trkpt>
      <trkpt lat="46.59196" lon="4.77767">
        <ele>196</ele>
        <time>2012-07-21T09:02:30.000Z</time>
      </trkpt>
      <trkpt lat="46.59193" lon="4.77772">
        <ele>197</ele>
        <time>2012-07-21T09:02:33.000Z</time>
      </trkpt>
      <trkpt lat="46.59192" lon="4.77773">
        <ele>197</ele>
        <time>2012-07-21T09:02:35.000Z</time>
      </trkpt>
      <trkpt lat="46.59194" lon="4.77774">
        <ele>197</ele>
        <time>2012-07-21T09:02:43.000Z</time>
      </trkpt>
      <trkpt lat="46.59195" lon="4.77775">
        <ele>197</ele>
        <time>2012-07-21T09:02:45.000Z</time>
      </trkpt>
      <trkpt lat="46.59194" lon="4.77777">
        <ele>197</ele>
        <time>2012-07-21T09:02:48.000Z</time>
      </trkpt>
      <trkpt lat="46.59193" lon="4.77777">
        <ele>197</ele>
        <time>2012-07-21T09:02:52.000Z</time>
      </trkpt>
      <trkpt lat="46.59193" lon="4.77779">
        <ele>197</ele>
        <time>2012-07-21T09:02:54.000Z</time>
      </trkpt>
      <trkpt lat="46.59191" lon="4.77782">
        <ele>197</ele>
        <time>2012-07-21T09:02:56.000Z</time>
      </trkpt>
      <trkpt lat="46.5919" lon="4.77792">
        <ele>197</ele>
        <time>2012-07-21T09:02:59.000Z</time>
      </trkpt>
      <trkpt lat="46.5919" lon="4.77811">
        <ele>198</ele>
        <time>2012-07-21T09:03:05.000Z</time>
      </trkpt>
      <trkpt lat="46.59194" lon="4.77818">
        <ele>198</ele>
        <time>2012-07-21T09:03:08.000Z</time>
      </trkpt>
      <trkpt lat="46.59196" lon="4.77825">
        <ele>198</ele>
        <time>2012-07-21T09:03:11.000Z</time>
      </trkpt>
      <trkpt lat="46.59197" lon="4.77836">
        <ele>198</ele>
        <time>2012-07-21T09:03:14.000Z</time>
      </trkpt>
      <trkpt lat="46.59202" lon="4.77871">
        <ele>199</ele>
        <time>2012-07-21T09:03:22.000Z</time>
      </trkpt>
      <trkpt lat="46.592" lon="4.77883">
        <ele>199</ele>
        <time>2012-07-21T09:03:25.000Z</time>
      </trkpt>
      <trkpt lat="46.592" lon="4.77894">
        <ele>199</ele>
        <time>2012-07-21T09:03:28.000Z</time>
      </trkpt>
      <trkpt lat="46.59201" lon="4.77912">
        <ele>200</ele>
        <time>2012-07-21T09:03:33.000Z</time>
      </trkpt>
      <trkpt lat="46.59203" lon="4.7792">
        <ele>200</ele>
        <time>2012-07-21T09:03:35.000Z</time>
      </trkpt>
      <trkpt lat="46.59216" lon="4.77979">
        <ele>201</ele>
        <time>2012-07-21T09:03:51.000Z</time>
      </trkpt>
      <trkpt lat="46.59233" lon="4.78046">
        <ele>201</ele>
        <time>2012-07-21T09:04:10.000Z</time>
      </trkpt>
      <trkpt lat="46.59235" lon="4.78067">
        <ele>201</ele>
        <time>2012-07-21T09:04:16.000Z</time>
      </trkpt>
      <trkpt lat="46.59238" lon="4.78077">
        <ele>202</ele>
        <time>2012-07-21T09:04:19.000Z</time>
      </trkpt>
      <trkpt lat="46.59238" lon="4.78094">
        <ele>202</ele>
        <time>2012-07-21T09:04:24.000Z</time>
      </trkpt>
      <trkpt lat="46.59239" lon="4.781">
        <ele>203</ele>
        <time>2012-07-21T09:04:26.000Z</time>
      </trkpt>
      <trkpt lat="46.59238" lon="4.78117">
        <ele>204</ele>
        <time>2012-07-21T09:04:31.000Z</time>
      </trkpt>
      <trkpt lat="46.59235" lon="4.78134">
        <ele>205</ele>
        <time>2012-07-21T09:04:36.000Z</time>
      </trkpt>
      <trkpt lat="46.59235" lon="4.78154">
        <ele>206</ele>
        <time>2012-07-21T09:04:42.000Z</time>
      </trkpt>
      <trkpt lat="46.59238" lon="4.78163">
        <ele>206</ele>
        <time>2012-07-21T09:04:45.000Z</time>
      </trkpt>
      <trkpt lat="46.5924" lon="4.78172">
        <ele>207</ele>
        <time>2012-07-21T09:04:48.000Z</time>
      </trkpt>
      <trkpt lat="46.59241" lon="4.78178">
        <ele>207</ele>
        <time>2012-07-21T09:04:50.000Z</time>
      </trkpt>
      <trkpt lat="46.59241" lon="4.78224">
        <ele>207</ele>
        <time>2012-07-21T09:05:04.000Z</time>
      </trkpt>
      <trkpt lat="46.59237" lon="4.78241">
        <ele>207</ele>
        <time>2012-07-21T09:05:09.000Z</time>
      </trkpt>
      <trkpt lat="46.59233" lon="4.78248">
        <ele>207</ele>
        <time>2012-07-21T09:05:11.000Z</time>
      </trkpt>
      <trkpt lat="46.59228" lon="4.7826">
        <ele>208</ele>
        <time>2012-07-21T09:05:14.000Z</time>
      </trkpt>
      <trkpt lat="46.59228" lon="4.78268">
        <ele>208</ele>
        <time>2012-07-21T09:05:16.000Z</time>
      </trkpt>
      <trkpt lat="46.59229" lon="4.78277">
        <ele>208</ele>
        <time>2012-07-21T09:05:19.000Z</time>
      </trkpt>
      <trkpt lat="46.5923" lon="4.78295">
        <ele>209</ele>
        <time>2012-07-21T09:05:25.000Z</time>
      </trkpt>
      <trkpt lat="46.59231" lon="4.78301">
        <ele>209</ele>
        <time>2012-07-21T09:05:27.000Z</time>
      </trkpt>
      <trkpt lat="46.59233" lon="4.78309">
        <ele>209</ele>
        <time>2012-07-21T09:05:30.000Z</time>
      </trkpt>
      <trkpt lat="46.59238" lon="4.78316">
        <ele>209</ele>
        <time>2012-07-21T09:05:33.000Z</time>
      </trkpt>
      <trkpt lat="46.59246" lon="4.78329">
        <ele>210</ele>
        <time>2012-07-21T09:05:40.000Z</time>
      </trkpt>
      <trkpt lat="46.5925" lon="4.78334">
        <ele>210</ele>
        <time>2012-07-21T09:05:42.000Z</time>
      </trkpt>
      <trkpt lat="46.59255" lon="4.78339">
        <ele>210</ele>
        <time>2012-07-21T09:05:44.000Z</time>
      </trkpt>
      <trkpt lat="46.59281" lon="4.78367">
        <ele>209</ele>
        <time>2012-07-21T09:05:55.000Z</time>
      </trkpt>
      <trkpt lat="46.59313" lon="4.78415">
        <ele>209</ele>
        <time>2012-07-21T09:06:09.000Z</time>
      </trkpt>
      <trkpt lat="46.59349" lon="4.78471">
        <ele>209</ele>
        <time>2012-07-21T09:06:28.000Z</time>
      </trkpt>
      <trkpt lat="46.59371" lon="4.78501">
        <ele>208</ele>
        <time>2012-07-21T09:06:39.000Z</time>
      </trkpt>
      <trkpt lat="46.59409" lon="4.78549">
        <ele>208</ele>
        <time>2012-07-21T09:06:56.000Z</time>
      </trkpt>
      <trkpt lat="46.59419" lon="4.78562">
        <ele>207</ele>
        <time>2012-07-21T09:07:01.000Z</time>
      </trkpt>
      <trkpt lat="46.59436" lon="4.78583">
        <ele>208</ele>
        <time>2012-07-21T09:07:08.000Z</time>
      </trkpt>
      <trkpt lat="46.59472" lon="4.78631">
        <ele>208</ele>
        <time>2012-07-21T09:07:24.000Z</time>
      </trkpt>
      <trkpt lat="46.59494" lon="4.7866">
        <ele>209</ele>
        <time>2012-07-21T09:07:34.000Z</time>
      </trkpt>
      <trkpt lat="46.59525" lon="4.78699">
        <ele>208</ele>
        <time>2012-07-21T09:07:46.000Z</time>
      </trkpt>
      <trkpt lat="46.5956" lon="4.78745">
        <ele>208</ele>
        <time>2012-07-21T09:07:58.000Z</time>
      </trkpt>
      <trkpt lat="46.59594" lon="4.78787">
        <ele>208</ele>
        <time>2012-07-21T09:08:10.000Z</time>
      </trkpt>
      <trkpt lat="46.5963" lon="4.78834">
        <ele>208</ele>
        <time>2012-07-21T09:08:22.000Z</time>
      </trkpt>
      <trkpt lat="46.59667" lon="4.78875">
        <ele>208</ele>
        <time>2012-07-21T09:08:35.000Z</time>
      </trkpt>
      <trkpt lat="46.59673" lon="4.78879">
        <ele>208</ele>
        <time>2012-07-21T09:08:37.000Z</time>
      </trkpt>
      <trkpt lat="46.5969" lon="4.78889">
        <ele>209</ele>
        <time>2012-07-21T09:08:42.000Z</time>
      </trkpt>
      <trkpt lat="46.59708" lon="4.78903">
        <ele>209</ele>
        <time>2012-07-21T09:08:47.000Z</time>
      </trkpt>
      <trkpt lat="46.59748" lon="4.78931">
        <ele>210</ele>
        <time>2012-07-21T09:08:58.000Z</time>
      </trkpt>
      <trkpt lat="46.59791" lon="4.78966">
        <ele>210</ele>
        <time>2012-07-21T09:09:11.000Z</time>
      </trkpt>
      <trkpt lat="46.59837" lon="4.79005">
        <ele>210</ele>
        <time>2012-07-21T09:09:24.000Z</time>
      </trkpt>
      <trkpt lat="46.59846" lon="4.79019">
        <ele>210</ele>
        <time>2012-07-21T09:09:27.000Z</time>
      </trkpt>
      <trkpt lat="46.59874" lon="4.79058">
        <ele>209</ele>
        <time>2012-07-21T09:09:35.000Z</time>
      </trkpt>
      <trkpt lat="46.59913" lon="4.79113">
        <ele>208</ele>
        <time>2012-07-21T09:09:42.000Z</time>
      </trkpt>
      <trkpt lat="46.59927" lon="4.79129">
        <ele>208</ele>
        <time>2012-07-21T09:09:45.000Z</time>
      </trkpt>
      <trkpt lat="46.5994" lon="4.79149">
        <ele>208</ele>
        <time>2012-07-21T09:09:48.000Z</time>
      </trkpt>
      <trkpt lat="46.59964" lon="4.79178">
        <ele>208</ele>
        <time>2012-07-21T09:09:53.000Z</time>
      </trkpt>
      <trkpt lat="46.59977" lon="4.79194">
        <ele>207</ele>
        <time>2012-07-21T09:09:56.000Z</time>
      </trkpt>
      <trkpt lat="46.60014" lon="4.79242">
        <ele>206</ele>
        <time>2012-07-21T09:10:05.000Z</time>
      </trkpt>
      <trkpt lat="46.6002" lon="4.79249">
        <ele>206</ele>
        <time>2012-07-21T09:10:07.000Z</time>
      </trkpt>
      <trkpt lat="46.60031" lon="4.79264">
        <ele>205</ele>
        <time>2012-07-21T09:10:10.000Z</time>
      </trkpt>
      <trkpt lat="46.60036" lon="4.79276">
        <ele>205</ele>
        <time>2012-07-21T09:10:12.000Z</time>
      </trkpt>
      <trkpt lat="46.60062" lon="4.79337">
        <ele>205</ele>
        <time>2012-07-21T09:10:23.000Z</time>
      </trkpt>
      <trkpt lat="46.60085" lon="4.7938">
        <ele>205</ele>
        <time>2012-07-21T09:10:32.000Z</time>
      </trkpt>
      <trkpt lat="46.60118" lon="4.7944">
        <ele>205</ele>
        <time>2012-07-21T09:10:45.000Z</time>
      </trkpt>
      <trkpt lat="46.6015" lon="4.79495">
        <ele>206</ele>
        <time>2012-07-21T09:10:57.000Z</time>
      </trkpt>
      <trkpt lat="46.60175" lon="4.79542">
        <ele>207</ele>
        <time>2012-07-21T09:11:09.000Z</time>
      </trkpt>
      <trkpt lat="46.60204" lon="4.79597">
        <ele>207</ele>
        <time>2012-07-21T09:11:24.000Z</time>
      </trkpt>
      <trkpt lat="46.6021" lon="4.79608">
        <ele>208</ele>
        <time>2012-07-21T09:11:27.000Z</time>
      </trkpt>
      <trkpt lat="46.60239" lon="4.79662">
        <ele>208</ele>
        <time>2012-07-21T09:11:39.000Z</time>
      </trkpt>
      <trkpt lat="46.60266" lon="4.79716">
        <ele>208</ele>
        <time>2012-07-21T09:11:49.000Z</time>
      </trkpt>
      <trkpt lat="46.60269" lon="4.79726">
        <ele>208</ele>
        <time>2012-07-21T09:11:51.000Z</time>
      </trkpt>
      <trkpt lat="46.60277" lon="4.79743">
        <ele>207</ele>
        <time>2012-07-21T09:11:55.000Z</time>
      </trkpt>
      <trkpt lat="46.60294" lon="4.79767">
        <ele>207</ele>
        <time>2012-07-21T09:11:59.000Z</time>
      </trkpt>
      <trkpt lat="46.60301" lon="4.79781">
        <ele>207</ele>
        <time>2012-07-21T09:12:01.000Z</time>
      </trkpt>
      <trkpt lat="46.60304" lon="4.79802">
        <ele>207</ele>
        <time>2012-07-21T09:12:04.000Z</time>
      </trkpt>
      <trkpt lat="46.60303" lon="4.79811">
        <ele>207</ele>
        <time>2012-07-21T09:12:06.000Z</time>
      </trkpt>
      <trkpt lat="46.60308" lon="4.79826">
        <ele>207</ele>
        <time>2012-07-21T09:12:08.000Z</time>
      </trkpt>
      <trkpt lat="46.60313" lon="4.79837">
        <ele>207</ele>
        <time>2012-07-21T09:12:11.000Z</time>
      </trkpt>
      <trkpt lat="46.60311" lon="4.79823">
        <ele>207</ele>
        <time>2012-07-21T09:12:13.000Z</time>
      </trkpt>
      <trkpt lat="46.60312" lon="4.79811">
        <ele>207</ele>
        <time>2012-07-21T09:12:16.000Z</time>
      </trkpt>
      <trkpt lat="46.60315" lon="4.79805">
        <ele>207</ele>
        <time>2012-07-21T09:12:18.000Z</time>
      </trkpt>
      <trkpt lat="46.60322" lon="4.79808">
        <ele>207</ele>
        <time>2012-07-21T09:12:21.000Z</time>
      </trkpt>
      <trkpt lat="46.60324" lon="4.7981">
        <ele>207</ele>
        <time>2012-07-21T09:12:23.000Z</time>
      </trkpt>
      <trkpt lat="46.60326" lon="4.79812">
        <ele>207</ele>
        <time>2012-07-21T09:12:26.000Z</time>
      </trkpt>
      <trkpt lat="46.60324" lon="4.79811">
        <ele>207</ele>
        <time>2012-07-21T09:12:28.000Z</time>
      </trkpt>
      <trkpt lat="46.60323" lon="4.79811">
        <ele>207</ele>
        <time>2012-07-21T09:12:31.000Z</time>
      </trkpt>
      <trkpt lat="46.60323" lon="4.79811">
        <ele>207</ele>
        <time>2012-07-21T09:12:51.000Z</time>
      </trkpt>
      <trkpt lat="46.60324" lon="4.79812">
        <ele>207</ele>
        <time>2012-07-21T09:12:54.000Z</time>
      </trkpt>
      <trkpt lat="46.60324" lon="4.79813">
        <ele>207</ele>
        <time>2012-07-21T09:13:00.000Z</time>
      </trkpt>
      <trkpt lat="46.60326" lon="4.79814">
        <ele>207</ele>
        <time>2012-07-21T09:13:02.000Z</time>
      </trkpt>
      <trkpt lat="46.60327" lon="4.79815">
        <ele>207</ele>
        <time>2012-07-21T09:13:04.000Z</time>
      </trkpt>
      <trkpt lat="46.60327" lon="4.79815">
        <ele>207</ele>
        <time>2012-07-21T09:13:24.000Z</time>
      </trkpt>
      <trkpt lat="46.60325" lon="4.79816">
        <ele>207</ele>
        <time>2012-07-21T09:13:31.000Z</time>
      </trkpt>
      <trkpt lat="46.60324" lon="4.79815">
        <ele>207</ele>
        <time>2012-07-21T09:13:34.000Z</time>
      </trkpt>
      <trkpt lat="46.60323" lon="4.79812">
        <ele>207</ele>
        <time>2012-07-21T09:13:37.000Z</time>
      </trkpt>
      <trkpt lat="46.60326" lon="4.79812">
        <ele>207</ele>
        <time>2012-07-21T09:13:49.000Z</time>
      </trkpt>
      <trkpt lat="46.60324" lon="4.79811">
        <ele>207</ele>
        <time>2012-07-21T09:13:52.000Z</time>
      </trkpt>
      <trkpt lat="46.60323" lon="4.79811">
        <ele>207</ele>
        <time>2012-07-21T09:13:57.000Z</time>
      </trkpt>
      <trkpt lat="46.60324" lon="4.79813">
        <ele>207</ele>
        <time>2012-07-21T09:14:00.000Z</time>
      </trkpt>
      <trkpt lat="46.60324" lon="4.79814">
        <ele>207</ele>
        <time>2012-07-21T09:14:03.000Z</time>
      </trkpt>
      <trkpt lat="46.60324" lon="4.79814">
        <ele>207</ele>
        <time>2012-07-21T09:14:23.000Z</time>
      </trkpt>
      <trkpt lat="46.60326" lon="4.79816">
        <ele>207</ele>
        <time>2012-07-21T09:14:37.000Z</time>
      </trkpt>
      <trkpt lat="46.60326" lon="4.79816">
        <ele>207</ele>
        <time>2012-07-21T09:14:57.000Z</time>
      </trkpt>
      <trkpt lat="46.60324" lon="4.79812">
        <ele>207</ele>
        <time>2012-07-21T09:15:37.000Z</time>
      </trkpt>
      <trkpt lat="46.60328" lon="4.79815">
        <ele>207</ele>
        <time>2012-07-21T09:15:40.000Z</time>
      </trkpt>
      <trkpt lat="46.60331" lon="4.7982">
        <ele>207</ele>
        <time>2012-07-21T09:15:43.000Z</time>
      </trkpt>
      <trkpt lat="46.60336" lon="4.79826">
        <ele>207</ele>
        <time>2012-07-21T09:15:48.000Z</time>
      </trkpt>
      <trkpt lat="46.60368" lon="4.79874">
        <ele>207</ele>
        <time>2012-07-21T09:16:10.000Z</time>
      </trkpt>
      <trkpt lat="46.60372" lon="4.79878">
        <ele>207</ele>
        <time>2012-07-21T09:16:12.000Z</time>
      </trkpt>
      <trkpt lat="46.60378" lon="4.79885">
        <ele>208</ele>
        <time>2012-07-21T09:16:15.000Z</time>
      </trkpt>
      <trkpt lat="46.60413" lon="4.79927">
        <ele>208</ele>
        <time>2012-07-21T09:16:34.000Z</time>
      </trkpt>
      <trkpt lat="46.60448" lon="4.79967">
        <ele>209</ele>
        <time>2012-07-21T09:16:53.000Z</time>
      </trkpt>
      <trkpt lat="46.60485" lon="4.80017">
        <ele>209</ele>
        <time>2012-07-21T09:17:15.000Z</time>
      </trkpt>
      <trkpt lat="46.60499" lon="4.80035">
        <ele>210</ele>
        <time>2012-07-21T09:17:21.000Z</time>
      </trkpt>
      <trkpt lat="46.60536" lon="4.80084">
        <ele>210</ele>
        <time>2012-07-21T09:17:39.000Z</time>
      </trkpt>
      <trkpt lat="46.60539" lon="4.8009">
        <ele>210</ele>
        <time>2012-07-21T09:17:41.000Z</time>
      </trkpt>
      <trkpt lat="46.60542" lon="4.801">
        <ele>210</ele>
        <time>2012-07-21T09:17:44.000Z</time>
      </trkpt>
      <trkpt lat="46.60544" lon="4.80107">
        <ele>210</ele>
        <time>2012-07-21T09:17:46.000Z</time>
      </trkpt>
      <trkpt lat="46.60548" lon="4.80113">
        <ele>210</ele>
        <time>2012-07-21T09:17:48.000Z</time>
      </trkpt>
      <trkpt lat="46.60553" lon="4.80127">
        <ele>211</ele>
        <time>2012-07-21T09:17:54.000Z</time>
      </trkpt>
      <trkpt lat="46.60552" lon="4.80132">
        <ele>211</ele>
        <time>2012-07-21T09:17:56.000Z</time>
      </trkpt>
      <trkpt lat="46.60548" lon="4.80142">
        <ele>211</ele>
        <time>2012-07-21T09:17:59.000Z</time>
      </trkpt>
      <trkpt lat="46.60539" lon="4.80163">
        <ele>212</ele>
        <time>2012-07-21T09:18:06.000Z</time>
      </trkpt>
      <trkpt lat="46.60533" lon="4.8019">
        <ele>212</ele>
        <time>2012-07-21T09:18:15.000Z</time>
      </trkpt>
      <trkpt lat="46.60544" lon="4.80189">
        <ele>212</ele>
        <time>2012-07-21T09:18:18.000Z</time>
      </trkpt>
      <trkpt lat="46.6055" lon="4.80189">
        <ele>212</ele>
        <time>2012-07-21T09:18:20.000Z</time>
      </trkpt>
      <trkpt lat="46.60559" lon="4.80193">
        <ele>212</ele>
        <time>2012-07-21T09:18:23.000Z</time>
      </trkpt>
      <trkpt lat="46.60566" lon="4.80197">
        <ele>212</ele>
        <time>2012-07-21T09:18:25.000Z</time>
      </trkpt>
      <trkpt lat="46.60609" lon="4.80224">
        <ele>212</ele>
        <time>2012-07-21T09:18:39.000Z</time>
      </trkpt>
      <trkpt lat="46.60658" lon="4.8025">
        <ele>212</ele>
        <time>2012-07-21T09:18:55.000Z</time>
      </trkpt>
      <trkpt lat="46.607" lon="4.80273">
        <ele>212</ele>
        <time>2012-07-21T09:19:08.000Z</time>
      </trkpt>
      <trkpt lat="46.60714" lon="4.80281">
        <ele>211</ele>
        <time>2012-07-21T09:19:12.000Z</time>
      </trkpt>
      <trkpt lat="46.60744" lon="4.80294">
        <ele>210</ele>
        <time>2012-07-21T09:19:21.000Z</time>
      </trkpt>
      <trkpt lat="46.60775" lon="4.80307">
        <ele>209</ele>
        <time>2012-07-21T09:19:29.000Z</time>
      </trkpt>
      <trkpt lat="46.60809" lon="4.80325">
        <ele>208</ele>
        <time>2012-07-21T09:19:38.000Z</time>
      </trkpt>
      <trkpt lat="46.60826" lon="4.80336">
        <ele>208</ele>
        <time>2012-07-21T09:19:43.000Z</time>
      </trkpt>
      <trkpt lat="46.60839" lon="4.80347">
        <ele>207</ele>
        <time>2012-07-21T09:19:48.000Z</time>
      </trkpt>
      <trkpt lat="46.60881" lon="4.80375">
        <ele>207</ele>
        <time>2012-07-21T09:20:07.000Z</time>
      </trkpt>
      <trkpt lat="46.60929" lon="4.80403">
        <ele>207</ele>
        <time>2012-07-21T09:20:20.000Z</time>
      </trkpt>
      <trkpt lat="46.60971" lon="4.80429">
        <ele>206</ele>
        <time>2012-07-21T09:20:31.000Z</time>
      </trkpt>
      <trkpt lat="46.61002" lon="4.80444">
        <ele>205</ele>
        <time>2012-07-21T09:20:39.000Z</time>
      </trkpt>
      <trkpt lat="46.6101" lon="4.80446">
        <ele>205</ele>
        <time>2012-07-21T09:20:41.000Z</time>
      </trkpt>
      <trkpt lat="46.61022" lon="4.80447">
        <ele>205</ele>
        <time>2012-07-21T09:20:44.000Z</time>
      </trkpt>
      <trkpt lat="46.6105" lon="4.80452">
        <ele>205</ele>
        <time>2012-07-21T09:20:51.000Z</time>
      </trkpt>
      <trkpt lat="46.6106" lon="4.80458">
        <ele>205</ele>
        <time>2012-07-21T09:20:54.000Z</time>
      </trkpt>
      <trkpt lat="46.61087" lon="4.80482">
        <ele>205</ele>
        <time>2012-07-21T09:21:06.000Z</time>
      </trkpt>
      <trkpt lat="46.61088" lon="4.80487">
        <ele>205</ele>
        <time>2012-07-21T09:21:08.000Z</time>
      </trkpt>
      <trkpt lat="46.61093" lon="4.80501">
        <ele>205</ele>
        <time>2012-07-21T09:21:13.000Z</time>
      </trkpt>
      <trkpt lat="46.61097" lon="4.80504">
        <ele>205</ele>
        <time>2012-07-21T09:21:15.000Z</time>
      </trkpt>
      <trkpt lat="46.61103" lon="4.80507">
        <ele>205</ele>
        <time>2012-07-21T09:21:18.000Z</time>
      </trkpt>
      <trkpt lat="46.61151" lon="4.80527">
        <ele>204</ele>
        <time>2012-07-21T09:21:36.000Z</time>
      </trkpt>
      <trkpt lat="46.61162" lon="4.80529">
        <ele>204</ele>
        <time>2012-07-21T09:21:39.000Z</time>
      </trkpt>
      <trkpt lat="46.61208" lon="4.80534">
        <ele>203</ele>
        <time>2012-07-21T09:21:52.000Z</time>
      </trkpt>
      <trkpt lat="46.61218" lon="4.80537">
        <ele>203</ele>
        <time>2012-07-21T09:21:55.000Z</time>
      </trkpt>
      <trkpt lat="46.61253" lon="4.80548">
        <ele>202</ele>
        <time>2012-07-21T09:22:05.000Z</time>
      </trkpt>
      <trkpt lat="46.61263" lon="4.80554">
        <ele>202</ele>
        <time>2012-07-21T09:22:08.000Z</time>
      </trkpt>
      <trkpt lat="46.61274" lon="4.80559">
        <ele>202</ele>
        <time>2012-07-21T09:22:11.000Z</time>
      </trkpt>
      <trkpt lat="46.61288" lon="4.80567">
        <ele>202</ele>
        <time>2012-07-21T09:22:16.000Z</time>
      </trkpt>
      <trkpt lat="46.61295" lon="4.80574">
        <ele>202</ele>
        <time>2012-07-21T09:22:19.000Z</time>
      </trkpt>
      <trkpt lat="46.613" lon="4.80577">
        <ele>201</ele>
        <time>2012-07-21T09:22:21.000Z</time>
      </trkpt>
      <trkpt lat="46.61346" lon="4.80605">
        <ele>201</ele>
        <time>2012-07-21T09:22:37.000Z</time>
      </trkpt>
      <trkpt lat="46.61356" lon="4.8061">
        <ele>201</ele>
        <time>2012-07-21T09:22:40.000Z</time>
      </trkpt>
      <trkpt lat="46.61378" lon="4.80617">
        <ele>201</ele>
        <time>2012-07-21T09:22:47.000Z</time>
      </trkpt>
      <trkpt lat="46.61387" lon="4.80616">
        <ele>201</ele>
        <time>2012-07-21T09:22:50.000Z</time>
      </trkpt>
      <trkpt lat="46.61394" lon="4.80615">
        <ele>200</ele>
        <time>2012-07-21T09:22:52.000Z</time>
      </trkpt>
      <trkpt lat="46.6142" lon="4.80614">
        <ele>199</ele>
        <time>2012-07-21T09:23:00.000Z</time>
      </trkpt>
      <trkpt lat="46.61431" lon="4.80616">
        <ele>199</ele>
        <time>2012-07-21T09:23:03.000Z</time>
      </trkpt>
      <trkpt lat="46.61489" lon="4.8062">
        <ele>199</ele>
        <time>2012-07-21T09:23:15.000Z</time>
      </trkpt>
      <trkpt lat="46.61509" lon="4.80627">
        <ele>200</ele>
        <time>2012-07-21T09:23:18.000Z</time>
      </trkpt>
      <trkpt lat="46.6152" lon="4.80633">
        <ele>200</ele>
        <time>2012-07-21T09:23:20.000Z</time>
      </trkpt>
      <trkpt lat="46.61527" lon="4.80641">
        <ele>200</ele>
        <time>2012-07-21T09:23:22.000Z</time>
      </trkpt>
      <trkpt lat="46.61543" lon="4.80648">
        <ele>200</ele>
        <time>2012-07-21T09:23:25.000Z</time>
      </trkpt>
      <trkpt lat="46.61557" lon="4.8066">
        <ele>199</ele>
        <time>2012-07-21T09:23:28.000Z</time>
      </trkpt>
      <trkpt lat="46.61565" lon="4.80665">
        <ele>199</ele>
        <time>2012-07-21T09:23:30.000Z</time>
      </trkpt>
      <trkpt lat="46.61577" lon="4.80675">
        <ele>199</ele>
        <time>2012-07-21T09:23:33.000Z</time>
      </trkpt>
      <trkpt lat="46.61586" lon="4.80684">
        <ele>198</ele>
        <time>2012-07-21T09:23:35.000Z</time>
      </trkpt>
      <trkpt lat="46.61594" lon="4.8069">
        <ele>198</ele>
        <time>2012-07-21T09:23:37.000Z</time>
      </trkpt>
      <trkpt lat="46.61602" lon="4.80697">
        <ele>198</ele>
        <time>2012-07-21T09:23:39.000Z</time>
      </trkpt>
      <trkpt lat="46.61624" lon="4.8072">
        <ele>197</ele>
        <time>2012-07-21T09:23:45.000Z</time>
      </trkpt>
      <trkpt lat="46.6163" lon="4.80728">
        <ele>197</ele>
        <time>2012-07-21T09:23:47.000Z</time>
      </trkpt>
      <trkpt lat="46.6165" lon="4.80755">
        <ele>196</ele>
        <time>2012-07-21T09:23:53.000Z</time>
      </trkpt>
      <trkpt lat="46.61689" lon="4.80807">
        <ele>196</ele>
        <time>2012-07-21T09:24:08.000Z</time>
      </trkpt>
      <trkpt lat="46.61718" lon="4.80838">
        <ele>196</ele>
        <time>2012-07-21T09:24:20.000Z</time>
      </trkpt>
      <trkpt lat="46.61723" lon="4.80842">
        <ele>196</ele>
        <time>2012-07-21T09:24:22.000Z</time>
      </trkpt>
      <trkpt lat="46.61759" lon="4.80863">
        <ele>195</ele>
        <time>2012-07-21T09:24:37.000Z</time>
      </trkpt>
      <trkpt lat="46.61773" lon="4.80873">
        <ele>195</ele>
        <time>2012-07-21T09:24:42.000Z</time>
      </trkpt>
      <trkpt lat="46.61782" lon="4.80882">
        <ele>195</ele>
        <time>2012-07-21T09:24:45.000Z</time>
      </trkpt>
      <trkpt lat="46.61821" lon="4.80917">
        <ele>195</ele>
        <time>2012-07-21T09:24:59.000Z</time>
      </trkpt>
      <trkpt lat="46.6183" lon="4.80922">
        <ele>194</ele>
        <time>2012-07-21T09:25:02.000Z</time>
      </trkpt>
      <trkpt lat="46.61871" lon="4.80951">
        <ele>194</ele>
        <time>2012-07-21T09:25:14.000Z</time>
      </trkpt>
      <trkpt lat="46.61917" lon="4.80989">
        <ele>194</ele>
        <time>2012-07-21T09:25:29.000Z</time>
      </trkpt>
      <trkpt lat="46.61951" lon="4.81009">
        <ele>194</ele>
        <time>2012-07-21T09:25:39.000Z</time>
      </trkpt>
      <trkpt lat="46.61995" lon="4.81033">
        <ele>194</ele>
        <time>2012-07-21T09:25:54.000Z</time>
      </trkpt>
      <trkpt lat="46.62038" lon="4.81049">
        <ele>194</ele>
        <time>2012-07-21T09:26:09.000Z</time>
      </trkpt>
      <trkpt lat="46.62044" lon="4.81039">
        <ele>195</ele>
        <time>2012-07-21T09:26:12.000Z</time>
      </trkpt>
      <trkpt lat="46.62048" lon="4.81031">
        <ele>195</ele>
        <time>2012-07-21T09:26:14.000Z</time>
      </trkpt>
      <trkpt lat="46.62053" lon="4.80995">
        <ele>195</ele>
        <time>2012-07-21T09:26:20.000Z</time>
      </trkpt>
      <trkpt lat="46.62054" lon="4.80977">
        <ele>194</ele>
        <time>2012-07-21T09:26:23.000Z</time>
      </trkpt>
      <trkpt lat="46.62056" lon="4.80961">
        <ele>194</ele>
        <time>2012-07-21T09:26:26.000Z</time>
      </trkpt>
      <trkpt lat="46.62062" lon="4.80934">
        <ele>193</ele>
        <time>2012-07-21T09:26:31.000Z</time>
      </trkpt>
      <trkpt lat="46.62068" lon="4.80918">
        <ele>193</ele>
        <time>2012-07-21T09:26:34.000Z</time>
      </trkpt>
      <trkpt lat="46.62082" lon="4.80883">
        <ele>192</ele>
        <time>2012-07-21T09:26:40.000Z</time>
      </trkpt>
      <trkpt lat="46.62093" lon="4.80856">
        <ele>191</ele>
        <time>2012-07-21T09:26:45.000Z</time>
      </trkpt>
      <trkpt lat="46.62101" lon="4.80817">
        <ele>191</ele>
        <time>2012-07-21T09:26:51.000Z</time>
      </trkpt>
      <trkpt lat="46.62109" lon="4.80802">
        <ele>190</ele>
        <time>2012-07-21T09:26:54.000Z</time>
      </trkpt>
      <trkpt lat="46.62115" lon="4.80794">
        <ele>190</ele>
        <time>2012-07-21T09:26:56.000Z</time>
      </trkpt>
      <trkpt lat="46.62122" lon="4.80774">
        <ele>190</ele>
        <time>2012-07-21T09:26:59.000Z</time>
      </trkpt>
      <trkpt lat="46.62121" lon="4.80761">
        <ele>190</ele>
        <time>2012-07-21T09:27:01.000Z</time>
      </trkpt>
      <trkpt lat="46.62125" lon="4.80741">
        <ele>189</ele>
        <time>2012-07-21T09:27:04.000Z</time>
      </trkpt>
      <trkpt lat="46.62132" lon="4.80728">
        <ele>189</ele>
        <time>2012-07-21T09:27:06.000Z</time>
      </trkpt>
      <trkpt lat="46.62152" lon="4.80684">
        <ele>188</ele>
        <time>2012-07-21T09:27:13.000Z</time>
      </trkpt>
      <trkpt lat="46.62174" lon="4.80634">
        <ele>187</ele>
        <time>2012-07-21T09:27:21.000Z</time>
      </trkpt>
      <trkpt lat="46.62183" lon="4.80622">
        <ele>187</ele>
        <time>2012-07-21T09:27:23.000Z</time>
      </trkpt>
      <trkpt lat="46.62189" lon="4.80599">
        <ele>187</ele>
        <time>2012-07-21T09:27:26.000Z</time>
      </trkpt>
      <trkpt lat="46.62194" lon="4.80587">
        <ele>187</ele>
        <time>2012-07-21T09:27:28.000Z</time>
      </trkpt>
      <trkpt lat="46.62219" lon="4.80514">
        <ele>187</ele>
        <time>2012-07-21T09:27:41.000Z</time>
      </trkpt>
      <trkpt lat="46.62228" lon="4.80496">
        <ele>187</ele>
        <time>2012-07-21T09:27:46.000Z</time>
      </trkpt>
      <trkpt lat="46.62229" lon="4.8049">
        <ele>187</ele>
        <time>2012-07-21T09:27:48.000Z</time>
      </trkpt>
      <trkpt lat="46.6223" lon="4.80483">
        <ele>187</ele>
        <time>2012-07-21T09:27:50.000Z</time>
      </trkpt>
      <trkpt lat="46.62229" lon="4.80477">
        <ele>187</ele>
        <time>2012-07-21T09:27:52.000Z</time>
      </trkpt>
      <trkpt lat="46.62232" lon="4.80459">
        <ele>187</ele>
        <time>2012-07-21T09:27:58.000Z</time>
      </trkpt>
      <trkpt lat="46.62233" lon="4.80455">
        <ele>187</ele>
        <time>2012-07-21T09:28:24.000Z</time>
      </trkpt>
      <trkpt lat="46.62232" lon="4.80462">
        <ele>187</ele>
        <time>2012-07-21T09:28:27.000Z</time>
      </trkpt>
      <trkpt lat="46.62232" lon="4.80464">
        <ele>187</ele>
        <time>2012-07-21T09:28:33.000Z</time>
      </trkpt>
      <trkpt lat="46.62233" lon="4.80463">
        <ele>187</ele>
        <time>2012-07-21T09:28:35.000Z</time>
      </trkpt>
      <trkpt lat="46.62236" lon="4.80458">
        <ele>187</ele>
        <time>2012-07-21T09:28:39.000Z</time>
      </trkpt>
      <trkpt lat="46.62235" lon="4.80453">
        <ele>187</ele>
        <time>2012-07-21T09:28:42.000Z</time>
      </trkpt>
      <trkpt lat="46.62236" lon="4.80451">
        <ele>187</ele>
        <time>2012-07-21T09:28:44.000Z</time>
      </trkpt>
      <trkpt lat="46.62234" lon="4.80451">
        <ele>187</ele>
        <time>2012-07-21T09:28:50.000Z</time>
      </trkpt>
      <trkpt lat="46.62234" lon="4.80454">
        <ele>187</ele>
        <time>2012-07-21T09:28:53.000Z</time>
      </trkpt>
      <trkpt lat="46.62233" lon="4.80457">
        <ele>187</ele>
        <time>2012-07-21T09:29:40.000Z</time>
      </trkpt>
      <trkpt lat="46.62231" lon="4.80458">
        <ele>187</ele>
        <time>2012-07-21T09:29:42.000Z</time>
      </trkpt>
      <trkpt lat="46.62228" lon="4.80458">
        <ele>187</ele>
        <time>2012-07-21T09:29:59.000Z</time>
      </trkpt>
      <trkpt lat="46.62227" lon="4.80457">
        <ele>187</ele>
        <time>2012-07-21T09:30:16.000Z</time>
      </trkpt>
      <trkpt lat="46.62226" lon="4.80462">
        <ele>187</ele>
        <time>2012-07-21T09:30:19.000Z</time>
      </trkpt>
      <trkpt lat="46.6221" lon="4.80528">
        <ele>187</ele>
        <time>2012-07-21T09:30:41.000Z</time>
      </trkpt>
      <trkpt lat="46.62212" lon="4.80518">
        <ele>187</ele>
        <time>2012-07-21T09:30:44.000Z</time>
      </trkpt>
      <trkpt lat="46.62226" lon="4.80456">
        <ele>187</ele>
        <time>2012-07-21T09:30:58.000Z</time>
      </trkpt>
      <trkpt lat="46.62229" lon="4.8045">
        <ele>187</ele>
        <time>2012-07-21T09:31:01.000Z</time>
      </trkpt>
      <trkpt lat="46.6223" lon="4.80445">
        <ele>187</ele>
        <time>2012-07-21T09:31:03.000Z</time>
      </trkpt>
      <trkpt lat="46.62232" lon="4.80439">
        <ele>187</ele>
        <time>2012-07-21T09:31:05.000Z</time>
      </trkpt>
      <trkpt lat="46.62237" lon="4.80432">
        <ele>187</ele>
        <time>2012-07-21T09:31:08.000Z</time>
      </trkpt>
      <trkpt lat="46.62239" lon="4.80428">
        <ele>187</ele>
        <time>2012-07-21T09:31:10.000Z</time>
      </trkpt>
      <trkpt lat="46.62243" lon="4.80416">
        <ele>187</ele>
        <time>2012-07-21T09:31:13.000Z</time>
      </trkpt>
      <trkpt lat="46.62259" lon="4.80353">
        <ele>187</ele>
        <time>2012-07-21T09:31:27.000Z</time>
      </trkpt>
      <trkpt lat="46.62262" lon="4.80353">
        <ele>187</ele>
        <time>2012-07-21T09:31:29.000Z</time>
      </trkpt>
      <trkpt lat="46.62267" lon="4.8035">
        <ele>187</ele>
        <time>2012-07-21T09:31:32.000Z</time>
      </trkpt>
      <trkpt lat="46.62271" lon="4.80346">
        <ele>187</ele>
        <time>2012-07-21T09:31:35.000Z</time>
      </trkpt>
      <trkpt lat="46.62271" lon="4.80343">
        <ele>188</ele>
        <time>2012-07-21T09:31:37.000Z</time>
      </trkpt>
      <trkpt lat="46.62268" lon="4.80348">
        <ele>188</ele>
        <time>2012-07-21T09:31:40.000Z</time>
      </trkpt>
      <trkpt lat="46.62264" lon="4.80359">
        <ele>188</ele>
        <time>2012-07-21T09:31:42.000Z</time>
      </trkpt>
      <trkpt lat="46.62255" lon="4.80387">
        <ele>187</ele>
        <time>2012-07-21T09:31:47.000Z</time>
      </trkpt>
      <trkpt lat="46.62238" lon="4.80453">
        <ele>187</ele>
        <time>2012-07-21T09:32:02.000Z</time>
      </trkpt>
      <trkpt lat="46.62235" lon="4.80459">
        <ele>187</ele>
        <time>2012-07-21T09:32:05.000Z</time>
      </trkpt>
      <trkpt lat="46.62235" lon="4.80463">
        <ele>187</ele>
        <time>2012-07-21T09:32:08.000Z</time>
      </trkpt>
      <trkpt lat="46.62235" lon="4.80467">
        <ele>187</ele>
        <time>2012-07-21T09:32:10.000Z</time>
      </trkpt>
      <trkpt lat="46.62233" lon="4.80475">
        <ele>187</ele>
        <time>2012-07-21T09:32:15.000Z</time>
      </trkpt>
      <trkpt lat="46.62233" lon="4.80479">
        <ele>187</ele>
        <time>2012-07-21T09:32:17.000Z</time>
      </trkpt>
      <trkpt lat="46.6223" lon="4.8049">
        <ele>187</ele>
        <time>2012-07-21T09:32:23.000Z</time>
      </trkpt>
      <trkpt lat="46.62227" lon="4.80487">
        <ele>187</ele>
        <time>2012-07-21T09:32:26.000Z</time>
      </trkpt>
      <trkpt lat="46.62228" lon="4.8048">
        <ele>187</ele>
        <time>2012-07-21T09:32:29.000Z</time>
      </trkpt>
      <trkpt lat="46.62226" lon="4.80477">
        <ele>187</ele>
        <time>2012-07-21T09:32:31.000Z</time>
      </trkpt>
      <trkpt lat="46.62226" lon="4.80473">
        <ele>187</ele>
        <time>2012-07-21T09:32:33.000Z</time>
      </trkpt>
      <trkpt lat="46.62228" lon="4.80464">
        <ele>187</ele>
        <time>2012-07-21T09:32:36.000Z</time>
      </trkpt>
      <trkpt lat="46.62233" lon="4.80446">
        <ele>187</ele>
        <time>2012-07-21T09:33:37.000Z</time>
      </trkpt>
      <trkpt lat="46.62234" lon="4.80441">
        <ele>187</ele>
        <time>2012-07-21T09:33:40.000Z</time>
      </trkpt>
      <trkpt lat="46.62235" lon="4.80437">
        <ele>187</ele>
        <time>2012-07-21T09:33:42.000Z</time>
      </trkpt>
      <trkpt lat="46.62237" lon="4.80427">
        <ele>187</ele>
        <time>2012-07-21T09:33:45.000Z</time>
      </trkpt>
      <trkpt lat="46.62239" lon="4.80422">
        <ele>187</ele>
        <time>2012-07-21T09:33:47.000Z</time>
      </trkpt>
      <trkpt lat="46.62246" lon="4.80409">
        <ele>187</ele>
        <time>2012-07-21T09:33:53.000Z</time>
      </trkpt>
      <trkpt lat="46.62252" lon="4.80393">
        <ele>187</ele>
        <time>2012-07-21T09:33:59.000Z</time>
      </trkpt>
      <trkpt lat="46.62253" lon="4.80387">
        <ele>187</ele>
        <time>2012-07-21T09:34:01.000Z</time>
      </trkpt>
      <trkpt lat="46.62261" lon="4.80356">
        <ele>187</ele>
        <time>2012-07-21T09:34:11.000Z</time>
      </trkpt>
      <trkpt lat="46.62268" lon="4.80349">
        <ele>187</ele>
        <time>2012-07-21T09:34:14.000Z</time>
      </trkpt>
      <trkpt lat="46.62273" lon="4.80345">
        <ele>187</ele>
        <time>2012-07-21T09:34:17.000Z</time>
      </trkpt>
      <trkpt lat="46.6228" lon="4.80347">
        <ele>188</ele>
        <time>2012-07-21T09:34:19.000Z</time>
      </trkpt>
      <trkpt lat="46.62294" lon="4.80356">
        <ele>188</ele>
        <time>2012-07-21T09:34:24.000Z</time>
      </trkpt>
      <trkpt lat="46.623" lon="4.80361">
        <ele>188</ele>
        <time>2012-07-21T09:34:26.000Z</time>
      </trkpt>
      <trkpt lat="46.6231" lon="4.80367">
        <ele>188</ele>
        <time>2012-07-21T09:34:29.000Z</time>
      </trkpt>
      <trkpt lat="46.62325" lon="4.80377">
        <ele>189</ele>
        <time>2012-07-21T09:34:34.000Z</time>
      </trkpt>
      <trkpt lat="46.62354" lon="4.80391">
        <ele>189</ele>
        <time>2012-07-21T09:34:43.000Z</time>
      </trkpt>
      <trkpt lat="46.6236" lon="4.80393">
        <ele>189</ele>
        <time>2012-07-21T09:34:45.000Z</time>
      </trkpt>
      <trkpt lat="46.62366" lon="4.80394">
        <ele>188</ele>
        <time>2012-07-21T09:34:47.000Z</time>
      </trkpt>
      <trkpt lat="46.62393" lon="4.80396">
        <ele>188</ele>
        <time>2012-07-21T09:34:55.000Z</time>
      </trkpt>
      <trkpt lat="46.6244" lon="4.80395">
        <ele>188</ele>
        <time>2012-07-21T09:35:08.000Z</time>
      </trkpt>
      <trkpt lat="46.62451" lon="4.80393">
        <ele>188</ele>
        <time>2012-07-21T09:35:11.000Z</time>
      </trkpt>
      <trkpt lat="46.6248" lon="4.80386">
        <ele>189</ele>
        <time>2012-07-21T09:35:19.000Z</time>
      </trkpt>
      <trkpt lat="46.62534" lon="4.80366">
        <ele>189</ele>
        <time>2012-07-21T09:35:34.000Z</time>
      </trkpt>
      <trkpt lat="46.62551" lon="4.80356">
        <ele>189</ele>
        <time>2012-07-21T09:35:40.000Z</time>
      </trkpt>
      <trkpt lat="46.62561" lon="4.80351">
        <ele>190</ele>
        <time>2012-07-21T09:35:43.000Z</time>
      </trkpt>
      <trkpt lat="46.62576" lon="4.80341">
        <ele>190</ele>
        <time>2012-07-21T09:35:48.000Z</time>
      </trkpt>
      <trkpt lat="46.62592" lon="4.80325">
        <ele>190</ele>
        <time>2012-07-21T09:35:54.000Z</time>
      </trkpt>
      <trkpt lat="46.62605" lon="4.80316">
        <ele>190</ele>
        <time>2012-07-21T09:35:58.000Z</time>
      </trkpt>
      <trkpt lat="46.62611" lon="4.80312">
        <ele>190</ele>
        <time>2012-07-21T09:36:00.000Z</time>
      </trkpt>
      <trkpt lat="46.62627" lon="4.80304">
        <ele>191</ele>
        <time>2012-07-21T09:36:05.000Z</time>
      </trkpt>
      <trkpt lat="46.62638" lon="4.80302">
        <ele>191</ele>
        <time>2012-07-21T09:36:08.000Z</time>
      </trkpt>
      <trkpt lat="46.62685" lon="4.80291">
        <ele>191</ele>
        <time>2012-07-21T09:36:22.000Z</time>
      </trkpt>
      <trkpt lat="46.62701" lon="4.80286">
        <ele>191</ele>
        <time>2012-07-21T09:36:27.000Z</time>
      </trkpt>
      <trkpt lat="46.62751" lon="4.80271">
        <ele>191</ele>
        <time>2012-07-21T09:36:42.000Z</time>
      </trkpt>
      <trkpt lat="46.62758" lon="4.80271">
        <ele>191</ele>
        <time>2012-07-21T09:36:44.000Z</time>
      </trkpt>
      <trkpt lat="46.62786" lon="4.80265">
        <ele>191</ele>
        <time>2012-07-21T09:36:53.000Z</time>
      </trkpt>
      <trkpt lat="46.62798" lon="4.80264">
        <ele>191</ele>
        <time>2012-07-21T09:36:56.000Z</time>
      </trkpt>
      <trkpt lat="46.62814" lon="4.80267">
        <ele>191</ele>
        <time>2012-07-21T09:36:59.000Z</time>
      </trkpt>
      <trkpt lat="46.62831" lon="4.80265">
        <ele>191</ele>
        <time>2012-07-21T09:37:02.000Z</time>
      </trkpt>
      <trkpt lat="46.62844" lon="4.80266">
        <ele>191</ele>
        <time>2012-07-21T09:37:04.000Z</time>
      </trkpt>
      <trkpt lat="46.62891" lon="4.80269">
        <ele>191</ele>
        <time>2012-07-21T09:37:13.000Z</time>
      </trkpt>
      <trkpt lat="46.62902" lon="4.80267">
        <ele>190</ele>
        <time>2012-07-21T09:37:16.000Z</time>
      </trkpt>
      <trkpt lat="46.62909" lon="4.80264">
        <ele>190</ele>
        <time>2012-07-21T09:37:18.000Z</time>
      </trkpt>
      <trkpt lat="46.62925" lon="4.80259">
        <ele>190</ele>
        <time>2012-07-21T09:37:23.000Z</time>
      </trkpt>
      <trkpt lat="46.62935" lon="4.80258">
        <ele>190</ele>
        <time>2012-07-21T09:37:26.000Z</time>
      </trkpt>
      <trkpt lat="46.62973" lon="4.80257">
        <ele>189</ele>
        <time>2012-07-21T09:37:36.000Z</time>
      </trkpt>
      <trkpt lat="46.63007" lon="4.80255">
        <ele>188</ele>
        <time>2012-07-21T09:37:44.000Z</time>
      </trkpt>
      <trkpt lat="46.63059" lon="4.80252">
        <ele>188</ele>
        <time>2012-07-21T09:37:57.000Z</time>
      </trkpt>
      <trkpt lat="46.63108" lon="4.80251">
        <ele>188</ele>
        <time>2012-07-21T09:38:10.000Z</time>
      </trkpt>
      <trkpt lat="46.63148" lon="4.80248">
        <ele>187</ele>
        <time>2012-07-21T09:38:20.000Z</time>
      </trkpt>
      <trkpt lat="46.63163" lon="4.80245">
        <ele>187</ele>
        <time>2012-07-21T09:38:25.000Z</time>
      </trkpt>
      <trkpt lat="46.63215" lon="4.80233">
        <ele>187</ele>
        <time>2012-07-21T09:38:40.000Z</time>
      </trkpt>
      <trkpt lat="46.63264" lon="4.80217">
        <ele>187</ele>
        <time>2012-07-21T09:38:53.000Z</time>
      </trkpt>
      <trkpt lat="46.63282" lon="4.80209">
        <ele>187</ele>
        <time>2012-07-21T09:38:58.000Z</time>
      </trkpt>
      <trkpt lat="46.63331" lon="4.80182">
        <ele>187</ele>
        <time>2012-07-21T09:39:12.000Z</time>
      </trkpt>
      <trkpt lat="46.63365" lon="4.8016">
        <ele>186</ele>
        <time>2012-07-21T09:39:23.000Z</time>
      </trkpt>
      <trkpt lat="46.63391" lon="4.80143">
        <ele>185</ele>
        <time>2012-07-21T09:39:31.000Z</time>
      </trkpt>
      <trkpt lat="46.63436" lon="4.8011">
        <ele>185</ele>
        <time>2012-07-21T09:39:44.000Z</time>
      </trkpt>
      <trkpt lat="46.6347" lon="4.8008">
        <ele>186</ele>
        <time>2012-07-21T09:39:55.000Z</time>
      </trkpt>
      <trkpt lat="46.63481" lon="4.80074">
        <ele>186</ele>
        <time>2012-07-21T09:39:58.000Z</time>
      </trkpt>
      <trkpt lat="46.63485" lon="4.80068">
        <ele>186</ele>
        <time>2012-07-21T09:40:00.000Z</time>
      </trkpt>
      <trkpt lat="46.63499" lon="4.80053">
        <ele>186</ele>
        <time>2012-07-21T09:40:05.000Z</time>
      </trkpt>
      <trkpt lat="46.6354" lon="4.80014">
        <ele>186</ele>
        <time>2012-07-21T09:40:20.000Z</time>
      </trkpt>
      <trkpt lat="46.63546" lon="4.80001">
        <ele>186</ele>
        <time>2012-07-21T09:40:23.000Z</time>
      </trkpt>
      <trkpt lat="46.63549" lon="4.79991">
        <ele>186</ele>
        <time>2012-07-21T09:40:25.000Z</time>
      </trkpt>
      <trkpt lat="46.63574" lon="4.79924">
        <ele>186</ele>
        <time>2012-07-21T09:40:44.000Z</time>
      </trkpt>
      <trkpt lat="46.63578" lon="4.79902">
        <ele>186</ele>
        <time>2012-07-21T09:40:50.000Z</time>
      </trkpt>
      <trkpt lat="46.63584" lon="4.799">
        <ele>186</ele>
        <time>2012-07-21T09:40:53.000Z</time>
      </trkpt>
      <trkpt lat="46.6359" lon="4.79903">
        <ele>186</ele>
        <time>2012-07-21T09:40:55.000Z</time>
      </trkpt>
      <trkpt lat="46.63596" lon="4.79914">
        <ele>187</ele>
        <time>2012-07-21T09:40:57.000Z</time>
      </trkpt>
      <trkpt lat="46.63599" lon="4.79947">
        <ele>187</ele>
        <time>2012-07-21T09:41:00.000Z</time>
      </trkpt>
      <trkpt lat="46.63601" lon="4.79965">
        <ele>186</ele>
        <time>2012-07-21T09:41:03.000Z</time>
      </trkpt>
      <trkpt lat="46.63602" lon="4.79987">
        <ele>186</ele>
        <time>2012-07-21T09:41:06.000Z</time>
      </trkpt>
      <trkpt lat="46.63605" lon="4.80006">
        <ele>186</ele>
        <time>2012-07-21T09:41:09.000Z</time>
      </trkpt>
      <trkpt lat="46.63616" lon="4.80075">
        <ele>186</ele>
        <time>2012-07-21T09:41:21.000Z</time>
      </trkpt>
      <trkpt lat="46.6362" lon="4.8009">
        <ele>185</ele>
        <time>2012-07-21T09:41:24.000Z</time>
      </trkpt>
      <trkpt lat="46.6363" lon="4.80148">
        <ele>184</ele>
        <time>2012-07-21T09:41:34.000Z</time>
      </trkpt>
      <trkpt lat="46.63638" lon="4.8018">
        <ele>183</ele>
        <time>2012-07-21T09:41:40.000Z</time>
      </trkpt>
      <trkpt lat="46.63643" lon="4.80273">
        <ele>183</ele>
        <time>2012-07-21T09:41:56.000Z</time>
      </trkpt>
      <trkpt lat="46.63642" lon="4.80288">
        <ele>184</ele>
        <time>2012-07-21T09:41:58.000Z</time>
      </trkpt>
      <trkpt lat="46.63643" lon="4.80301">
        <ele>184</ele>
        <time>2012-07-21T09:42:00.000Z</time>
      </trkpt>
      <trkpt lat="46.63642" lon="4.80319">
        <ele>185</ele>
        <time>2012-07-21T09:42:03.000Z</time>
      </trkpt>
      <trkpt lat="46.6364" lon="4.80336">
        <ele>186</ele>
        <time>2012-07-21T09:42:06.000Z</time>
      </trkpt>
      <trkpt lat="46.63642" lon="4.80359">
        <ele>186</ele>
        <time>2012-07-21T09:42:12.000Z</time>
      </trkpt>
      <trkpt lat="46.63644" lon="4.80373">
        <ele>187</ele>
        <time>2012-07-21T09:42:15.000Z</time>
      </trkpt>
      <trkpt lat="46.63646" lon="4.80398">
        <ele>186</ele>
        <time>2012-07-21T09:42:18.000Z</time>
      </trkpt>
      <trkpt lat="46.63645" lon="4.80414">
        <ele>186</ele>
        <time>2012-07-21T09:42:20.000Z</time>
      </trkpt>
      <trkpt lat="46.63641" lon="4.80452">
        <ele>185</ele>
        <time>2012-07-21T09:42:25.000Z</time>
      </trkpt>
      <trkpt lat="46.63634" lon="4.80529">
        <ele>185</ele>
        <time>2012-07-21T09:42:37.000Z</time>
      </trkpt>
      <trkpt lat="46.63636" lon="4.80533">
        <ele>185</ele>
        <time>2012-07-21T09:42:39.000Z</time>
      </trkpt>
      <trkpt lat="46.63638" lon="4.8054">
        <ele>185</ele>
        <time>2012-07-21T09:42:42.000Z</time>
      </trkpt>
      <trkpt lat="46.63639" lon="4.80602">
        <ele>185</ele>
        <time>2012-07-21T09:42:55.000Z</time>
      </trkpt>
      <trkpt lat="46.63633" lon="4.80609">
        <ele>185</ele>
        <time>2012-07-21T09:42:57.000Z</time>
      </trkpt>
      <trkpt lat="46.63628" lon="4.80618">
        <ele>185</ele>
        <time>2012-07-21T09:42:59.000Z</time>
      </trkpt>
      <trkpt lat="46.63625" lon="4.80626">
        <ele>186</ele>
        <time>2012-07-21T09:43:01.000Z</time>
      </trkpt>
      <trkpt lat="46.63622" lon="4.80636">
        <ele>186</ele>
        <time>2012-07-21T09:43:04.000Z</time>
      </trkpt>
      <trkpt lat="46.63617" lon="4.8064">
        <ele>186</ele>
        <time>2012-07-21T09:43:07.000Z</time>
      </trkpt>
      <trkpt lat="46.63615" lon="4.80641">
        <ele>186</ele>
        <time>2012-07-21T09:43:09.000Z</time>
      </trkpt>
      <trkpt lat="46.63614" lon="4.80642">
        <ele>186</ele>
        <time>2012-07-21T09:43:12.000Z</time>
      </trkpt>
      <trkpt lat="46.63612" lon="4.80644">
        <ele>187</ele>
        <time>2012-07-21T09:43:14.000Z</time>
      </trkpt>
      <trkpt lat="46.63611" lon="4.80642">
        <ele>187</ele>
        <time>2012-07-21T09:43:19.000Z</time>
      </trkpt>
      <trkpt lat="46.6361" lon="4.80639">
        <ele>187</ele>
        <time>2012-07-21T09:43:22.000Z</time>
      </trkpt>
      <trkpt lat="46.63609" lon="4.80633">
        <ele>187</ele>
        <time>2012-07-21T09:43:25.000Z</time>
      </trkpt>
      <trkpt lat="46.63609" lon="4.80632">
        <ele>187</ele>
        <time>2012-07-21T09:43:28.000Z</time>
      </trkpt>
      <trkpt lat="46.63609" lon="4.80635">
        <ele>187</ele>
        <time>2012-07-21T09:43:31.000Z</time>
      </trkpt>
      <trkpt lat="46.63606" lon="4.80639">
        <ele>187</ele>
        <time>2012-07-21T09:43:40.000Z</time>
      </trkpt>
      <trkpt lat="46.63607" lon="4.80638">
        <ele>187</ele>
        <time>2012-07-21T09:43:43.000Z</time>
      </trkpt>
      <trkpt lat="46.63611" lon="4.8064">
        <ele>187</ele>
        <time>2012-07-21T09:43:46.000Z</time>
      </trkpt>
      <trkpt lat="46.6361" lon="4.80637">
        <ele>187</ele>
        <time>2012-07-21T09:43:51.000Z</time>
      </trkpt>
      <trkpt lat="46.63607" lon="4.80633">
        <ele>187</ele>
        <time>2012-07-21T09:43:54.000Z</time>
      </trkpt>
      <trkpt lat="46.63607" lon="4.8063">
        <ele>187</ele>
        <time>2012-07-21T09:43:57.000Z</time>
      </trkpt>
      <trkpt lat="46.63608" lon="4.8063">
        <ele>186</ele>
        <time>2012-07-21T09:44:00.000Z</time>
      </trkpt>
      <trkpt lat="46.63608" lon="4.80633">
        <ele>186</ele>
        <time>2012-07-21T09:44:06.000Z</time>
      </trkpt>
      <trkpt lat="46.63607" lon="4.80635">
        <ele>186</ele>
        <time>2012-07-21T09:44:09.000Z</time>
      </trkpt>
      <trkpt lat="46.63608" lon="4.80637">
        <ele>186</ele>
        <time>2012-07-21T09:44:13.000Z</time>
      </trkpt>
      <trkpt lat="46.63612" lon="4.80639">
        <ele>186</ele>
        <time>2012-07-21T09:44:23.000Z</time>
      </trkpt>
      <trkpt lat="46.63612" lon="4.8064">
        <ele>187</ele>
        <time>2012-07-21T09:44:31.000Z</time>
      </trkpt>
      <trkpt lat="46.6361" lon="4.80643">
        <ele>187</ele>
        <time>2012-07-21T09:44:34.000Z</time>
      </trkpt>
      <trkpt lat="46.63609" lon="4.80645">
        <ele>187</ele>
        <time>2012-07-21T09:44:36.000Z</time>
      </trkpt>
      <trkpt lat="46.6361" lon="4.80648">
        <ele>187</ele>
        <time>2012-07-21T09:44:39.000Z</time>
      </trkpt>
      <trkpt lat="46.63612" lon="4.80649">
        <ele>187</ele>
        <time>2012-07-21T09:44:41.000Z</time>
      </trkpt>
      <trkpt lat="46.63614" lon="4.80649">
        <ele>187</ele>
        <time>2012-07-21T09:44:44.000Z</time>
      </trkpt>
      <trkpt lat="46.63616" lon="4.80648">
        <ele>187</ele>
        <time>2012-07-21T09:44:46.000Z</time>
      </trkpt>
      <trkpt lat="46.63617" lon="4.80647">
        <ele>187</ele>
        <time>2012-07-21T09:44:48.000Z</time>
      </trkpt>
      <trkpt lat="46.63615" lon="4.80645">
        <ele>187</ele>
        <time>2012-07-21T09:45:04.000Z</time>
      </trkpt>
      <trkpt lat="46.63614" lon="4.80645">
        <ele>187</ele>
        <time>2012-07-21T09:45:06.000Z</time>
      </trkpt>
      <trkpt lat="46.63612" lon="4.80647">
        <ele>187</ele>
        <time>2012-07-21T09:45:09.000Z</time>
      </trkpt>
      <trkpt lat="46.6361" lon="4.80646">
        <ele>187</ele>
        <time>2012-07-21T09:45:11.000Z</time>
      </trkpt>
      <trkpt lat="46.6361" lon="4.80643">
        <ele>187</ele>
        <time>2012-07-21T09:45:14.000Z</time>
      </trkpt>
      <trkpt lat="46.63609" lon="4.80642">
        <ele>187</ele>
        <time>2012-07-21T09:45:17.000Z</time>
      </trkpt>
      <trkpt lat="46.63604" lon="4.80643">
        <ele>187</ele>
        <time>2012-07-21T09:45:36.000Z</time>
      </trkpt>
      <trkpt lat="46.63601" lon="4.80643">
        <ele>187</ele>
        <time>2012-07-21T09:45:42.000Z</time>
      </trkpt>
      <trkpt lat="46.63597" lon="4.80646">
        <ele>187</ele>
        <time>2012-07-21T09:45:45.000Z</time>
      </trkpt>
      <trkpt lat="46.63594" lon="4.80651">
        <ele>187</ele>
        <time>2012-07-21T09:45:47.000Z</time>
      </trkpt>
      <trkpt lat="46.63589" lon="4.80654">
        <ele>187</ele>
        <time>2012-07-21T09:45:49.000Z</time>
      </trkpt>
      <trkpt lat="46.63583" lon="4.80664">
        <ele>187</ele>
        <time>2012-07-21T09:45:55.000Z</time>
      </trkpt>
      <trkpt lat="46.63583" lon="4.80666">
        <ele>188</ele>
        <time>2012-07-21T09:45:57.000Z</time>
      </trkpt>
      <trkpt lat="46.63582" lon="4.80667">
        <ele>188</ele>
        <time>2012-07-21T09:45:59.000Z</time>
      </trkpt>
      <trkpt lat="46.63582" lon="4.80667">
        <ele>188</ele>
        <time>2012-07-21T09:46:19.000Z</time>
      </trkpt>
      <trkpt lat="46.63585" lon="4.80664">
        <ele>188</ele>
        <time>2012-07-21T09:46:33.000Z</time>
      </trkpt>
      <trkpt lat="46.63586" lon="4.80665">
        <ele>188</ele>
        <time>2012-07-21T09:46:40.000Z</time>
      </trkpt>
      <trkpt lat="46.63586" lon="4.80663">
        <ele>188</ele>
        <time>2012-07-21T09:46:45.000Z</time>
      </trkpt>
      <trkpt lat="46.63587" lon="4.80657">
        <ele>188</ele>
        <time>2012-07-21T09:46:48.000Z</time>
      </trkpt>
      <trkpt lat="46.63589" lon="4.80649">
        <ele>188</ele>
        <time>2012-07-21T09:46:51.000Z</time>
      </trkpt>
      <trkpt lat="46.63596" lon="4.80639">
        <ele>187</ele>
        <time>2012-07-21T09:46:54.000Z</time>
      </trkpt>
      <trkpt lat="46.636" lon="4.80633">
        <ele>187</ele>
        <time>2012-07-21T09:46:56.000Z</time>
      </trkpt>
      <trkpt lat="46.63617" lon="4.80609">
        <ele>186</ele>
        <time>2012-07-21T09:47:03.000Z</time>
      </trkpt>
      <trkpt lat="46.63622" lon="4.80598">
        <ele>186</ele>
        <time>2012-07-21T09:47:06.000Z</time>
      </trkpt>
      <trkpt lat="46.63623" lon="4.80589">
        <ele>186</ele>
        <time>2012-07-21T09:47:09.000Z</time>
      </trkpt>
      <trkpt lat="46.63622" lon="4.80581">
        <ele>185</ele>
        <time>2012-07-21T09:47:12.000Z</time>
      </trkpt>
      <trkpt lat="46.6362" lon="4.80579">
        <ele>185</ele>
        <time>2012-07-21T09:47:14.000Z</time>
      </trkpt>
      <trkpt lat="46.63614" lon="4.80567">
        <ele>185</ele>
        <time>2012-07-21T09:47:22.000Z</time>
      </trkpt>
      <trkpt lat="46.63614" lon="4.80562">
        <ele>185</ele>
        <time>2012-07-21T09:47:24.000Z</time>
      </trkpt>
      <trkpt lat="46.63614" lon="4.80555">
        <ele>185</ele>
        <time>2012-07-21T09:47:27.000Z</time>
      </trkpt>
      <trkpt lat="46.63614" lon="4.80539">
        <ele>185</ele>
        <time>2012-07-21T09:47:33.000Z</time>
      </trkpt>
      <trkpt lat="46.63616" lon="4.80531">
        <ele>185</ele>
        <time>2012-07-21T09:47:36.000Z</time>
      </trkpt>
      <trkpt lat="46.63617" lon="4.80507">
        <ele>185</ele>
        <time>2012-07-21T09:47:45.000Z</time>
      </trkpt>
      <trkpt lat="46.63614" lon="4.80503">
        <ele>185</ele>
        <time>2012-07-21T09:47:48.000Z</time>
      </trkpt>
      <trkpt lat="46.63616" lon="4.80498">
        <ele>185</ele>
        <time>2012-07-21T09:47:51.000Z</time>
      </trkpt>
      <trkpt lat="46.63616" lon="4.80494">
        <ele>185</ele>
        <time>2012-07-21T09:47:53.000Z</time>
      </trkpt>
      <trkpt lat="46.63616" lon="4.80488">
        <ele>185</ele>
        <time>2012-07-21T09:47:56.000Z</time>
      </trkpt>
      <trkpt lat="46.63617" lon="4.80482">
        <ele>185</ele>
        <time>2012-07-21T09:47:58.000Z</time>
      </trkpt>
      <trkpt lat="46.63624" lon="4.80412">
        <ele>185</ele>
        <time>2012-07-21T09:48:19.000Z</time>
      </trkpt>
      <trkpt lat="46.63628" lon="4.80373">
        <ele>186</ele>
        <time>2012-07-21T09:48:32.000Z</time>
      </trkpt>
      <trkpt lat="46.6363" lon="4.80365">
        <ele>186</ele>
        <time>2012-07-21T09:48:35.000Z</time>
      </trkpt>
      <trkpt lat="46.6363" lon="4.80352">
        <ele>186</ele>
        <time>2012-07-21T09:48:40.000Z</time>
      </trkpt>
      <trkpt lat="46.63629" lon="4.80347">
        <ele>186</ele>
        <time>2012-07-21T09:48:42.000Z</time>
      </trkpt>
      <trkpt lat="46.6363" lon="4.80341">
        <ele>186</ele>
        <time>2012-07-21T09:48:44.000Z</time>
      </trkpt>
      <trkpt lat="46.63636" lon="4.80283">
        <ele>185</ele>
        <time>2012-07-21T09:49:01.000Z</time>
      </trkpt>
      <trkpt lat="46.63639" lon="4.80267">
        <ele>184</ele>
        <time>2012-07-21T09:49:08.000Z</time>
      </trkpt>
      <trkpt lat="46.6364" lon="4.80264">
        <ele>184</ele>
        <time>2012-07-21T09:49:11.000Z</time>
      </trkpt>
      <trkpt lat="46.63641" lon="4.8026">
        <ele>184</ele>
        <time>2012-07-21T09:49:14.000Z</time>
      </trkpt>
      <trkpt lat="46.63642" lon="4.80254">
        <ele>183</ele>
        <time>2012-07-21T09:49:19.000Z</time>
      </trkpt>
      <trkpt lat="46.63641" lon="4.80255">
        <ele>183</ele>
        <time>2012-07-21T09:49:26.000Z</time>
      </trkpt>
      <trkpt lat="46.6364" lon="4.80255">
        <ele>183</ele>
        <time>2012-07-21T09:49:36.000Z</time>
      </trkpt>
      <trkpt lat="46.63638" lon="4.80256">
        <ele>183</ele>
        <time>2012-07-21T09:49:50.000Z</time>
      </trkpt>
      <trkpt lat="46.63638" lon="4.80252">
        <ele>183</ele>
        <time>2012-07-21T09:49:52.000Z</time>
      </trkpt>
      <trkpt lat="46.63639" lon="4.80249">
        <ele>183</ele>
        <time>2012-07-21T09:49:54.000Z</time>
      </trkpt>
      <trkpt lat="46.63639" lon="4.80208">
        <ele>183</ele>
        <time>2012-07-21T09:50:04.000Z</time>
      </trkpt>
      <trkpt lat="46.63638" lon="4.80192">
        <ele>183</ele>
        <time>2012-07-21T09:50:07.000Z</time>
      </trkpt>
      <trkpt lat="46.63635" lon="4.80167">
        <ele>183</ele>
        <time>2012-07-21T09:50:12.000Z</time>
      </trkpt>
      <trkpt lat="46.63628" lon="4.80139">
        <ele>183</ele>
        <time>2012-07-21T09:50:18.000Z</time>
      </trkpt>
      <trkpt lat="46.63623" lon="4.80115">
        <ele>184</ele>
        <time>2012-07-21T09:50:24.000Z</time>
      </trkpt>
      <trkpt lat="46.63613" lon="4.80079">
        <ele>185</ele>
        <time>2012-07-21T09:50:32.000Z</time>
      </trkpt>
      <trkpt lat="46.63602" lon="4.80019">
        <ele>186</ele>
        <time>2012-07-21T09:50:46.000Z</time>
      </trkpt>
      <trkpt lat="46.63601" lon="4.8">
        <ele>186</ele>
        <time>2012-07-21T09:50:51.000Z</time>
      </trkpt>
      <trkpt lat="46.63591" lon="4.79934">
        <ele>186</ele>
        <time>2012-07-21T09:51:07.000Z</time>
      </trkpt>
      <trkpt lat="46.63581" lon="4.79883">
        <ele>187</ele>
        <time>2012-07-21T09:51:22.000Z</time>
      </trkpt>
      <trkpt lat="46.63582" lon="4.79872">
        <ele>187</ele>
        <time>2012-07-21T09:51:25.000Z</time>
      </trkpt>
      <trkpt lat="46.63586" lon="4.79861">
        <ele>187</ele>
        <time>2012-07-21T09:51:28.000Z</time>
      </trkpt>
      <trkpt lat="46.63594" lon="4.79852">
        <ele>188</ele>
        <time>2012-07-21T09:51:31.000Z</time>
      </trkpt>
      <trkpt lat="46.63599" lon="4.79846">
        <ele>188</ele>
        <time>2012-07-21T09:51:33.000Z</time>
      </trkpt>
      <trkpt lat="46.63605" lon="4.79841">
        <ele>188</ele>
        <time>2012-07-21T09:51:35.000Z</time>
      </trkpt>
      <trkpt lat="46.63613" lon="4.79835">
        <ele>189</ele>
        <time>2012-07-21T09:51:38.000Z</time>
      </trkpt>
      <trkpt lat="46.6362" lon="4.79831">
        <ele>189</ele>
        <time>2012-07-21T09:51:41.000Z</time>
      </trkpt>
      <trkpt lat="46.6364" lon="4.79824">
        <ele>190</ele>
        <time>2012-07-21T09:51:48.000Z</time>
      </trkpt>
      <trkpt lat="46.6367" lon="4.79808">
        <ele>190</ele>
        <time>2012-07-21T09:51:59.000Z</time>
      </trkpt>
      <trkpt lat="46.63681" lon="4.79804">
        <ele>190</ele>
        <time>2012-07-21T09:52:04.000Z</time>
      </trkpt>
      <trkpt lat="46.63688" lon="4.79803">
        <ele>190</ele>
        <time>2012-07-21T09:52:07.000Z</time>
      </trkpt>
      <trkpt lat="46.63691" lon="4.79801">
        <ele>190</ele>
        <time>2012-07-21T09:52:09.000Z</time>
      </trkpt>
      <trkpt lat="46.63696" lon="4.79796">
        <ele>190</ele>
        <time>2012-07-21T09:52:12.000Z</time>
      </trkpt>
      <trkpt lat="46.637" lon="4.79792">
        <ele>190</ele>
        <time>2012-07-21T09:52:14.000Z</time>
      </trkpt>
      <trkpt lat="46.63711" lon="4.7979">
        <ele>190</ele>
        <time>2012-07-21T09:52:17.000Z</time>
      </trkpt>
      <trkpt lat="46.63718" lon="4.7979">
        <ele>190</ele>
        <time>2012-07-21T09:52:19.000Z</time>
      </trkpt>
      <trkpt lat="46.63728" lon="4.79787">
        <ele>190</ele>
        <time>2012-07-21T09:52:22.000Z</time>
      </trkpt>
      <trkpt lat="46.63755" lon="4.79783">
        <ele>190</ele>
        <time>2012-07-21T09:52:31.000Z</time>
      </trkpt>
      <trkpt lat="46.6379" lon="4.79783">
        <ele>191</ele>
        <time>2012-07-21T09:52:41.000Z</time>
      </trkpt>
      <trkpt lat="46.63839" lon="4.79785">
        <ele>191</ele>
        <time>2012-07-21T09:52:58.000Z</time>
      </trkpt>
      <trkpt lat="46.63845" lon="4.79784">
        <ele>192</ele>
        <time>2012-07-21T09:53:00.000Z</time>
      </trkpt>
      <trkpt lat="46.63895" lon="4.79784">
        <ele>192</ele>
        <time>2012-07-21T09:53:16.000Z</time>
      </trkpt>
      <trkpt lat="46.63902" lon="4.79783">
        <ele>192</ele>
        <time>2012-07-21T09:53:18.000Z</time>
      </trkpt>
      <trkpt lat="46.63908" lon="4.79782">
        <ele>193</ele>
        <time>2012-07-21T09:53:20.000Z</time>
      </trkpt>
      <trkpt lat="46.63945" lon="4.79768">
        <ele>193</ele>
        <time>2012-07-21T09:53:32.000Z</time>
      </trkpt>
      <trkpt lat="46.6395" lon="4.79763">
        <ele>193</ele>
        <time>2012-07-21T09:53:34.000Z</time>
      </trkpt>
      <trkpt lat="46.63958" lon="4.79756">
        <ele>193</ele>
        <time>2012-07-21T09:53:37.000Z</time>
      </trkpt>
      <trkpt lat="46.63962" lon="4.79751">
        <ele>193</ele>
        <time>2012-07-21T09:53:39.000Z</time>
      </trkpt>
      <trkpt lat="46.63969" lon="4.79741">
        <ele>192</ele>
        <time>2012-07-21T09:53:43.000Z</time>
      </trkpt>
      <trkpt lat="46.63973" lon="4.79734">
        <ele>192</ele>
        <time>2012-07-21T09:53:46.000Z</time>
      </trkpt>
      <trkpt lat="46.6398" lon="4.79726">
        <ele>192</ele>
        <time>2012-07-21T09:53:54.000Z</time>
      </trkpt>
      <trkpt lat="46.64019" lon="4.79678">
        <ele>192</ele>
        <time>2012-07-21T09:54:22.000Z</time>
      </trkpt>
      <trkpt lat="46.64057" lon="4.79631">
        <ele>192</ele>
        <time>2012-07-21T09:54:47.000Z</time>
      </trkpt>
      <trkpt lat="46.6406" lon="4.79627">
        <ele>193</ele>
        <time>2012-07-21T09:54:49.000Z</time>
      </trkpt>
      <trkpt lat="46.64096" lon="4.79584">
        <ele>193</ele>
        <time>2012-07-21T09:55:11.000Z</time>
      </trkpt>
      <trkpt lat="46.64127" lon="4.79551">
        <ele>192</ele>
        <time>2012-07-21T09:55:24.000Z</time>
      </trkpt>
      <trkpt lat="46.6415" lon="4.79533">
        <ele>192</ele>
        <time>2012-07-21T09:55:32.000Z</time>
      </trkpt>
      <trkpt lat="46.64159" lon="4.79527">
        <ele>191</ele>
        <time>2012-07-21T09:55:34.000Z</time>
      </trkpt>
      <trkpt lat="46.64207" lon="4.79504">
        <ele>190</ele>
        <time>2012-07-21T09:55:43.000Z</time>
      </trkpt>
      <trkpt lat="46.64238" lon="4.79488">
        <ele>189</ele>
        <time>2012-07-21T09:55:48.000Z</time>
      </trkpt>
      <trkpt lat="46.64275" lon="4.79469">
        <ele>188</ele>
        <time>2012-07-21T09:55:54.000Z</time>
      </trkpt>
      <trkpt lat="46.64304" lon="4.79457">
        <ele>187</ele>
        <time>2012-07-21T09:55:59.000Z</time>
      </trkpt>
      <trkpt lat="46.6432" lon="4.79446">
        <ele>187</ele>
        <time>2012-07-21T09:56:02.000Z</time>
      </trkpt>
      <trkpt lat="46.64337" lon="4.79438">
        <ele>187</ele>
        <time>2012-07-21T09:56:05.000Z</time>
      </trkpt>
      <trkpt lat="46.64346" lon="4.79435">
        <ele>186</ele>
        <time>2012-07-21T09:56:07.000Z</time>
      </trkpt>
      <trkpt lat="46.64354" lon="4.7943">
        <ele>186</ele>
        <time>2012-07-21T09:56:09.000Z</time>
      </trkpt>
      <trkpt lat="46.64363" lon="4.79425">
        <ele>185</ele>
        <time>2012-07-21T09:56:11.000Z</time>
      </trkpt>
      <trkpt lat="46.64371" lon="4.79418">
        <ele>185</ele>
        <time>2012-07-21T09:56:13.000Z</time>
      </trkpt>
      <trkpt lat="46.64384" lon="4.79413">
        <ele>184</ele>
        <time>2012-07-21T09:56:16.000Z</time>
      </trkpt>
      <trkpt lat="46.64394" lon="4.79411">
        <ele>184</ele>
        <time>2012-07-21T09:56:18.000Z</time>
      </trkpt>
      <trkpt lat="46.64404" lon="4.79406">
        <ele>184</ele>
        <time>2012-07-21T09:56:20.000Z</time>
      </trkpt>
      <trkpt lat="46.64415" lon="4.79402">
        <ele>183</ele>
        <time>2012-07-21T09:56:22.000Z</time>
      </trkpt>
      <trkpt lat="46.64437" lon="4.79397">
        <ele>183</ele>
        <time>2012-07-21T09:56:27.000Z</time>
      </trkpt>
      <trkpt lat="46.64453" lon="4.79398">
        <ele>183</ele>
        <time>2012-07-21T09:56:30.000Z</time>
      </trkpt>
      <trkpt lat="46.6451" lon="4.79406">
        <ele>184</ele>
        <time>2012-07-21T09:56:41.000Z</time>
      </trkpt>
      <trkpt lat="46.64553" lon="4.79418">
        <ele>184</ele>
        <time>2012-07-21T09:56:54.000Z</time>
      </trkpt>
      <trkpt lat="46.64562" lon="4.79419">
        <ele>183</ele>
        <time>2012-07-21T09:56:57.000Z</time>
      </trkpt>
      <trkpt lat="46.64571" lon="4.79414">
        <ele>183</ele>
        <time>2012-07-21T09:57:00.000Z</time>
      </trkpt>
      <trkpt lat="46.64579" lon="4.79402">
        <ele>183</ele>
        <time>2012-07-21T09:57:03.000Z</time>
      </trkpt>
      <trkpt lat="46.64608" lon="4.79349">
        <ele>184</ele>
        <time>2012-07-21T09:57:15.000Z</time>
      </trkpt>
      <trkpt lat="46.64643" lon="4.79292">
        <ele>184</ele>
        <time>2012-07-21T09:57:30.000Z</time>
      </trkpt>
      <trkpt lat="46.64642" lon="4.79288">
        <ele>184</ele>
        <time>2012-07-21T09:57:32.000Z</time>
      </trkpt>
      <trkpt lat="46.64634" lon="4.79278">
        <ele>184</ele>
        <time>2012-07-21T09:57:35.000Z</time>
      </trkpt>
      <trkpt lat="46.64603" lon="4.7923">
        <ele>184</ele>
        <time>2012-07-21T09:57:47.000Z</time>
      </trkpt>
      <trkpt lat="46.64598" lon="4.79217">
        <ele>184</ele>
        <time>2012-07-21T09:57:50.000Z</time>
      </trkpt>
      <trkpt lat="46.64588" lon="4.79187">
        <ele>184</ele>
        <time>2012-07-21T09:57:58.000Z</time>
      </trkpt>
      <trkpt lat="46.64571" lon="4.79123">
        <ele>184</ele>
        <time>2012-07-21T09:58:19.000Z</time>
      </trkpt>
      <trkpt lat="46.64568" lon="4.7911">
        <ele>183</ele>
        <time>2012-07-21T09:58:22.000Z</time>
      </trkpt>
      <trkpt lat="46.64555" lon="4.79041">
        <ele>183</ele>
        <time>2012-07-21T09:58:40.000Z</time>
      </trkpt>
      <trkpt lat="46.6455" lon="4.79015">
        <ele>182</ele>
        <time>2012-07-21T09:58:47.000Z</time>
      </trkpt>
      <trkpt lat="46.64534" lon="4.7894">
        <ele>182</ele>
        <time>2012-07-21T09:59:03.000Z</time>
      </trkpt>
      <trkpt lat="46.64514" lon="4.78873">
        <ele>181</ele>
        <time>2012-07-21T09:59:18.000Z</time>
      </trkpt>
      <trkpt lat="46.64504" lon="4.7885">
        <ele>181</ele>
        <time>2012-07-21T09:59:23.000Z</time>
      </trkpt>
      <trkpt lat="46.64477" lon="4.78792">
        <ele>182</ele>
        <time>2012-07-21T09:59:36.000Z</time>
      </trkpt>
      <trkpt lat="46.64472" lon="4.78784">
        <ele>182</ele>
        <time>2012-07-21T09:59:38.000Z</time>
      </trkpt>
      <trkpt lat="46.64456" lon="4.78755">
        <ele>183</ele>
        <time>2012-07-21T09:59:45.000Z</time>
      </trkpt>
      <trkpt lat="46.64425" lon="4.78695">
        <ele>183</ele>
        <time>2012-07-21T09:59:59.000Z</time>
      </trkpt>
      <trkpt lat="46.64414" lon="4.78674">
        <ele>182</ele>
        <time>2012-07-21T10:00:04.000Z</time>
      </trkpt>
      <trkpt lat="46.64387" lon="4.7862">
        <ele>182</ele>
        <time>2012-07-21T10:00:17.000Z</time>
      </trkpt>
      <trkpt lat="46.64361" lon="4.78557">
        <ele>182</ele>
        <time>2012-07-21T10:00:30.000Z</time>
      </trkpt>
      <trkpt lat="46.64348" lon="4.78493">
        <ele>182</ele>
        <time>2012-07-21T10:00:47.000Z</time>
      </trkpt>
      <trkpt lat="46.64357" lon="4.78488">
        <ele>182</ele>
        <time>2012-07-21T10:00:50.000Z</time>
      </trkpt>
      <trkpt lat="46.64363" lon="4.78484">
        <ele>182</ele>
        <time>2012-07-21T10:00:52.000Z</time>
      </trkpt>
      <trkpt lat="46.64405" lon="4.78443">
        <ele>182</ele>
        <time>2012-07-21T10:01:09.000Z</time>
      </trkpt>
      <trkpt lat="46.6442" lon="4.78432">
        <ele>182</ele>
        <time>2012-07-21T10:01:15.000Z</time>
      </trkpt>
      <trkpt lat="46.64426" lon="4.78424">
        <ele>182</ele>
        <time>2012-07-21T10:01:18.000Z</time>
      </trkpt>
      <trkpt lat="46.64424" lon="4.78415">
        <ele>182</ele>
        <time>2012-07-21T10:01:20.000Z</time>
      </trkpt>
      <trkpt lat="46.6442" lon="4.78408">
        <ele>182</ele>
        <time>2012-07-21T10:01:22.000Z</time>
      </trkpt>
      <trkpt lat="46.64415" lon="4.78402">
        <ele>182</ele>
        <time>2012-07-21T10:01:24.000Z</time>
      </trkpt>
      <trkpt lat="46.64384" lon="4.78359">
        <ele>182</ele>
        <time>2012-07-21T10:01:37.000Z</time>
      </trkpt>
      <trkpt lat="46.64347" lon="4.78304">
        <ele>182</ele>
        <time>2012-07-21T10:01:54.000Z</time>
      </trkpt>
      <trkpt lat="46.64342" lon="4.78293">
        <ele>182</ele>
        <time>2012-07-21T10:01:57.000Z</time>
      </trkpt>
      <trkpt lat="46.64315" lon="4.7825">
        <ele>183</ele>
        <time>2012-07-21T10:02:10.000Z</time>
      </trkpt>
      <trkpt lat="46.64313" lon="4.7825">
        <ele>183</ele>
        <time>2012-07-21T10:02:13.000Z</time>
      </trkpt>
      <trkpt lat="46.64318" lon="4.78258">
        <ele>183</ele>
        <time>2012-07-21T10:02:16.000Z</time>
      </trkpt>
      <trkpt lat="46.6433" lon="4.7827">
        <ele>183</ele>
        <time>2012-07-21T10:02:19.000Z</time>
      </trkpt>
      <trkpt lat="46.64346" lon="4.78274">
        <ele>183</ele>
        <time>2012-07-21T10:02:25.000Z</time>
      </trkpt>
      <trkpt lat="46.64349" lon="4.78266">
        <ele>183</ele>
        <time>2012-07-21T10:02:27.000Z</time>
      </trkpt>
      <trkpt lat="46.64352" lon="4.78253">
        <ele>183</ele>
        <time>2012-07-21T10:02:30.000Z</time>
      </trkpt>
      <trkpt lat="46.64359" lon="4.78237">
        <ele>183</ele>
        <time>2012-07-21T10:02:37.000Z</time>
      </trkpt>
      <trkpt lat="46.64362" lon="4.78233">
        <ele>183</ele>
        <time>2012-07-21T10:02:39.000Z</time>
      </trkpt>
      <trkpt lat="46.6437" lon="4.78227">
        <ele>183</ele>
        <time>2012-07-21T10:02:43.000Z</time>
      </trkpt>
      <trkpt lat="46.64377" lon="4.78224">
        <ele>183</ele>
        <time>2012-07-21T10:02:46.000Z</time>
      </trkpt>
      <trkpt lat="46.64381" lon="4.78224">
        <ele>183</ele>
        <time>2012-07-21T10:02:48.000Z</time>
      </trkpt>
      <trkpt lat="46.64387" lon="4.78222">
        <ele>183</ele>
        <time>2012-07-21T10:02:51.000Z</time>
      </trkpt>
      <trkpt lat="46.64405" lon="4.78219">
        <ele>183</ele>
        <time>2012-07-21T10:03:01.000Z</time>
      </trkpt>
      <trkpt lat="46.64407" lon="4.78224">
        <ele>184</ele>
        <time>2012-07-21T10:03:04.000Z</time>
      </trkpt>
      <trkpt lat="46.64413" lon="4.78234">
        <ele>184</ele>
        <time>2012-07-21T10:03:12.000Z</time>
      </trkpt>
      <trkpt lat="46.64417" lon="4.7823">
        <ele>184</ele>
        <time>2012-07-21T10:03:15.000Z</time>
      </trkpt>
      <trkpt lat="46.64429" lon="4.78219">
        <ele>183</ele>
        <time>2012-07-21T10:03:28.000Z</time>
      </trkpt>
      <trkpt lat="46.64427" lon="4.78218">
        <ele>183</ele>
        <time>2012-07-21T10:03:33.000Z</time>
      </trkpt>
      <trkpt lat="46.64428" lon="4.7822">
        <ele>183</ele>
        <time>2012-07-21T10:03:42.000Z</time>
      </trkpt>
      <trkpt lat="46.64429" lon="4.78222">
        <ele>183</ele>
        <time>2012-07-21T10:03:45.000Z</time>
      </trkpt>
      <trkpt lat="46.64431" lon="4.7822">
        <ele>183</ele>
        <time>2012-07-21T10:03:57.000Z</time>
      </trkpt>
      <trkpt lat="46.64432" lon="4.78218">
        <ele>183</ele>
        <time>2012-07-21T10:03:59.000Z</time>
      </trkpt>
      <trkpt lat="46.64437" lon="4.78212">
        <ele>183</ele>
        <time>2012-07-21T10:04:16.000Z</time>
      </trkpt>
      <trkpt lat="46.64436" lon="4.78214">
        <ele>183</ele>
        <time>2012-07-21T10:04:18.000Z</time>
      </trkpt>
      <trkpt lat="46.64435" lon="4.78216">
        <ele>183</ele>
        <time>2012-07-21T10:04:21.000Z</time>
      </trkpt>
      <trkpt lat="46.64432" lon="4.78219">
        <ele>183</ele>
        <time>2012-07-21T10:04:26.000Z</time>
      </trkpt>
      <trkpt lat="46.64431" lon="4.78219">
        <ele>183</ele>
        <time>2012-07-21T10:04:29.000Z</time>
      </trkpt>
      <trkpt lat="46.64429" lon="4.78219">
        <ele>183</ele>
        <time>2012-07-21T10:04:31.000Z</time>
      </trkpt>
      <trkpt lat="46.64428" lon="4.78219">
        <ele>183</ele>
        <time>2012-07-21T10:04:33.000Z</time>
      </trkpt>
      <trkpt lat="46.64429" lon="4.78219">
        <ele>183</ele>
        <time>2012-07-21T10:04:40.000Z</time>
      </trkpt>
      <trkpt lat="46.64429" lon="4.78221">
        <ele>183</ele>
        <time>2012-07-21T10:04:43.000Z</time>
      </trkpt>
      <trkpt lat="46.64428" lon="4.78222">
        <ele>183</ele>
        <time>2012-07-21T10:04:47.000Z</time>
      </trkpt>
      <trkpt lat="46.64425" lon="4.78223">
        <ele>183</ele>
        <time>2012-07-21T10:04:52.000Z</time>
      </trkpt>
      <trkpt lat="46.64424" lon="4.78224">
        <ele>183</ele>
        <time>2012-07-21T10:04:55.000Z</time>
      </trkpt>
      <trkpt lat="46.64423" lon="4.78226">
        <ele>184</ele>
        <time>2012-07-21T10:04:58.000Z</time>
      </trkpt>
      <trkpt lat="46.64421" lon="4.78227">
        <ele>184</ele>
        <time>2012-07-21T10:05:00.000Z</time>
      </trkpt>
      <trkpt lat="46.64415" lon="4.78232">
        <ele>184</ele>
        <time>2012-07-21T10:05:10.000Z</time>
      </trkpt>
      <trkpt lat="46.64413" lon="4.78231">
        <ele>184</ele>
        <time>2012-07-21T10:05:12.000Z</time>
      </trkpt>
      <trkpt lat="46.64412" lon="4.7823">
        <ele>184</ele>
        <time>2012-07-21T10:05:15.000Z</time>
      </trkpt>
      <trkpt lat="46.6441" lon="4.78226">
        <ele>184</ele>
        <time>2012-07-21T10:05:26.000Z</time>
      </trkpt>
      <trkpt lat="46.64409" lon="4.78224">
        <ele>184</ele>
        <time>2012-07-21T10:05:28.000Z</time>
      </trkpt>
      <trkpt lat="46.64406" lon="4.78219">
        <ele>184</ele>
        <time>2012-07-21T10:05:31.000Z</time>
      </trkpt>
      <trkpt lat="46.64402" lon="4.78216">
        <ele>184</ele>
        <time>2012-07-21T10:05:34.000Z</time>
      </trkpt>
      <trkpt lat="46.64399" lon="4.78216">
        <ele>184</ele>
        <time>2012-07-21T10:05:36.000Z</time>
      </trkpt>
      <trkpt lat="46.64394" lon="4.78218">
        <ele>184</ele>
        <time>2012-07-21T10:05:39.000Z</time>
      </trkpt>
      <trkpt lat="46.64389" lon="4.78221">
        <ele>183</ele>
        <time>2012-07-21T10:05:42.000Z</time>
      </trkpt>
      <trkpt lat="46.64386" lon="4.78223">
        <ele>183</ele>
        <time>2012-07-21T10:05:44.000Z</time>
      </trkpt>
      <trkpt lat="46.64375" lon="4.78227">
        <ele>183</ele>
        <time>2012-07-21T10:05:51.000Z</time>
      </trkpt>
      <trkpt lat="46.6436" lon="4.78236">
        <ele>183</ele>
        <time>2012-07-21T10:06:00.000Z</time>
      </trkpt>
      <trkpt lat="46.64356" lon="4.78244">
        <ele>183</ele>
        <time>2012-07-21T10:06:03.000Z</time>
      </trkpt>
      <trkpt lat="46.64352" lon="4.78251">
        <ele>183</ele>
        <time>2012-07-21T10:06:06.000Z</time>
      </trkpt>
      <trkpt lat="46.64333" lon="4.78275">
        <ele>182</ele>
        <time>2012-07-21T10:06:22.000Z</time>
      </trkpt>
      <trkpt lat="46.6433" lon="4.78268">
        <ele>182</ele>
        <time>2012-07-21T10:06:24.000Z</time>
      </trkpt>
      <trkpt lat="46.64325" lon="4.78259">
        <ele>182</ele>
        <time>2012-07-21T10:06:27.000Z</time>
      </trkpt>
      <trkpt lat="46.6432" lon="4.78249">
        <ele>183</ele>
        <time>2012-07-21T10:06:30.000Z</time>
      </trkpt>
      <trkpt lat="46.64317" lon="4.78244">
        <ele>183</ele>
        <time>2012-07-21T10:06:32.000Z</time>
      </trkpt>
      <trkpt lat="46.64285" lon="4.78197">
        <ele>183</ele>
        <time>2012-07-21T10:06:50.000Z</time>
      </trkpt>
      <trkpt lat="46.64264" lon="4.78164">
        <ele>184</ele>
        <time>2012-07-21T10:07:01.000Z</time>
      </trkpt>
      <trkpt lat="46.64228" lon="4.7811">
        <ele>183</ele>
        <time>2012-07-21T10:07:19.000Z</time>
      </trkpt>
      <trkpt lat="46.64194" lon="4.78054">
        <ele>183</ele>
        <time>2012-07-21T10:07:36.000Z</time>
      </trkpt>
      <trkpt lat="46.64187" lon="4.78045">
        <ele>183</ele>
        <time>2012-07-21T10:07:39.000Z</time>
      </trkpt>
      <trkpt lat="46.64178" lon="4.78038">
        <ele>183</ele>
        <time>2012-07-21T10:07:42.000Z</time>
      </trkpt>
      <trkpt lat="46.64158" lon="4.78023">
        <ele>182</ele>
        <time>2012-07-21T10:07:48.000Z</time>
      </trkpt>
      <trkpt lat="46.64146" lon="4.78016">
        <ele>182</ele>
        <time>2012-07-21T10:07:51.000Z</time>
      </trkpt>
      <trkpt lat="46.64103" lon="4.7799">
        <ele>182</ele>
        <time>2012-07-21T10:08:01.000Z</time>
      </trkpt>
      <trkpt lat="46.6409" lon="4.77983">
        <ele>181</ele>
        <time>2012-07-21T10:08:04.000Z</time>
      </trkpt>
      <trkpt lat="46.64054" lon="4.77963">
        <ele>182</ele>
        <time>2012-07-21T10:08:12.000Z</time>
      </trkpt>
      <trkpt lat="46.64011" lon="4.77947">
        <ele>182</ele>
        <time>2012-07-21T10:08:21.000Z</time>
      </trkpt>
      <trkpt lat="46.63996" lon="4.77931">
        <ele>183</ele>
        <time>2012-07-21T10:08:24.000Z</time>
      </trkpt>
      <trkpt lat="46.63982" lon="4.77919">
        <ele>183</ele>
        <time>2012-07-21T10:08:27.000Z</time>
      </trkpt>
      <trkpt lat="46.63966" lon="4.77912">
        <ele>183</ele>
        <time>2012-07-21T10:08:30.000Z</time>
      </trkpt>
      <trkpt lat="46.63954" lon="4.7791">
        <ele>183</ele>
        <time>2012-07-21T10:08:32.000Z</time>
      </trkpt>
      <trkpt lat="46.63921" lon="4.77902">
        <ele>184</ele>
        <time>2012-07-21T10:08:38.000Z</time>
      </trkpt>
      <trkpt lat="46.6391" lon="4.77898">
        <ele>184</ele>
        <time>2012-07-21T10:08:40.000Z</time>
      </trkpt>
      <trkpt lat="46.63899" lon="4.77895">
        <ele>184</ele>
        <time>2012-07-21T10:08:42.000Z</time>
      </trkpt>
      <trkpt lat="46.63882" lon="4.7789">
        <ele>184</ele>
        <time>2012-07-21T10:08:45.000Z</time>
      </trkpt>
      <trkpt lat="46.63865" lon="4.77887">
        <ele>184</ele>
        <time>2012-07-21T10:08:48.000Z</time>
      </trkpt>
      <trkpt lat="46.63847" lon="4.77881">
        <ele>185</ele>
        <time>2012-07-21T10:08:51.000Z</time>
      </trkpt>
      <trkpt lat="46.63802" lon="4.77867">
        <ele>185</ele>
        <time>2012-07-21T10:08:59.000Z</time>
      </trkpt>
      <trkpt lat="46.63791" lon="4.77858">
        <ele>185</ele>
        <time>2012-07-21T10:09:01.000Z</time>
      </trkpt>
      <trkpt lat="46.63768" lon="4.77831">
        <ele>185</ele>
        <time>2012-07-21T10:09:06.000Z</time>
      </trkpt>
      <trkpt lat="46.63757" lon="4.77813">
        <ele>184</ele>
        <time>2012-07-21T10:09:09.000Z</time>
      </trkpt>
      <trkpt lat="46.63741" lon="4.77779">
        <ele>184</ele>
        <time>2012-07-21T10:09:14.000Z</time>
      </trkpt>
      <trkpt lat="46.63726" lon="4.77737">
        <ele>185</ele>
        <time>2012-07-21T10:09:20.000Z</time>
      </trkpt>
      <trkpt lat="46.63722" lon="4.77722">
        <ele>185</ele>
        <time>2012-07-21T10:09:22.000Z</time>
      </trkpt>
      <trkpt lat="46.63712" lon="4.77655">
        <ele>185</ele>
        <time>2012-07-21T10:09:30.000Z</time>
      </trkpt>
      <trkpt lat="46.63704" lon="4.7759">
        <ele>185</ele>
        <time>2012-07-21T10:09:38.000Z</time>
      </trkpt>
      <trkpt lat="46.63701" lon="4.77573">
        <ele>186</ele>
        <time>2012-07-21T10:09:40.000Z</time>
      </trkpt>
      <trkpt lat="46.63692" lon="4.775">
        <ele>186</ele>
        <time>2012-07-21T10:09:49.000Z</time>
      </trkpt>
      <trkpt lat="46.63681" lon="4.77419">
        <ele>186</ele>
        <time>2012-07-21T10:09:59.000Z</time>
      </trkpt>
      <trkpt lat="46.63672" lon="4.77332">
        <ele>186</ele>
        <time>2012-07-21T10:10:10.000Z</time>
      </trkpt>
      <trkpt lat="46.63665" lon="4.77266">
        <ele>186</ele>
        <time>2012-07-21T10:10:20.000Z</time>
      </trkpt>
      <trkpt lat="46.63662" lon="4.77249">
        <ele>185</ele>
        <time>2012-07-21T10:10:23.000Z</time>
      </trkpt>
      <trkpt lat="46.6365" lon="4.77214">
        <ele>185</ele>
        <time>2012-07-21T10:10:29.000Z</time>
      </trkpt>
      <trkpt lat="46.63638" lon="4.77201">
        <ele>185</ele>
        <time>2012-07-21T10:10:32.000Z</time>
      </trkpt>
      <trkpt lat="46.63625" lon="4.77191">
        <ele>186</ele>
        <time>2012-07-21T10:10:35.000Z</time>
      </trkpt>
      <trkpt lat="46.63591" lon="4.77171">
        <ele>187</ele>
        <time>2012-07-21T10:10:43.000Z</time>
      </trkpt>
      <trkpt lat="46.63578" lon="4.7717">
        <ele>187</ele>
        <time>2012-07-21T10:10:46.000Z</time>
      </trkpt>
      <trkpt lat="46.63568" lon="4.77167">
        <ele>188</ele>
        <time>2012-07-21T10:10:49.000Z</time>
      </trkpt>
      <trkpt lat="46.63562" lon="4.77167">
        <ele>188</ele>
        <time>2012-07-21T10:10:51.000Z</time>
      </trkpt>
      <trkpt lat="46.63552" lon="4.7717">
        <ele>188</ele>
        <time>2012-07-21T10:10:56.000Z</time>
      </trkpt>
      <trkpt lat="46.63552" lon="4.77172">
        <ele>188</ele>
        <time>2012-07-21T10:10:58.000Z</time>
      </trkpt>
      <trkpt lat="46.63553" lon="4.77175">
        <ele>188</ele>
        <time>2012-07-21T10:11:00.000Z</time>
      </trkpt>
      <trkpt lat="46.63554" lon="4.77176">
        <ele>188</ele>
        <time>2012-07-21T10:11:06.000Z</time>
      </trkpt>
      <trkpt lat="46.63553" lon="4.77175">
        <ele>188</ele>
        <time>2012-07-21T10:11:08.000Z</time>
      </trkpt>
      <trkpt lat="46.63552" lon="4.77177">
        <ele>188</ele>
        <time>2012-07-21T10:11:10.000Z</time>
      </trkpt>
      <trkpt lat="46.63551" lon="4.7718">
        <ele>188</ele>
        <time>2012-07-21T10:11:12.000Z</time>
      </trkpt>
      <trkpt lat="46.6355" lon="4.77184">
        <ele>189</ele>
        <time>2012-07-21T10:11:15.000Z</time>
      </trkpt>
      <trkpt lat="46.63548" lon="4.77185">
        <ele>189</ele>
        <time>2012-07-21T10:11:17.000Z</time>
      </trkpt>
      <trkpt lat="46.63546" lon="4.77181">
        <ele>189</ele>
        <time>2012-07-21T10:11:20.000Z</time>
      </trkpt>
      <trkpt lat="46.63546" lon="4.77179">
        <ele>189</ele>
        <time>2012-07-21T10:11:22.000Z</time>
      </trkpt>
      <trkpt lat="46.63545" lon="4.77177">
        <ele>189</ele>
        <time>2012-07-21T10:11:25.000Z</time>
      </trkpt>
      <trkpt lat="46.63546" lon="4.77176">
        <ele>189</ele>
        <time>2012-07-21T10:11:32.000Z</time>
      </trkpt>
      <trkpt lat="46.63547" lon="4.77175">
        <ele>189</ele>
        <time>2012-07-21T10:11:35.000Z</time>
      </trkpt>
      <trkpt lat="46.63548" lon="4.77176">
        <ele>189</ele>
        <time>2012-07-21T10:11:42.000Z</time>
      </trkpt>
      <trkpt lat="46.63549" lon="4.77175">
        <ele>189</ele>
        <time>2012-07-21T10:11:45.000Z</time>
      </trkpt>
      <trkpt lat="46.63548" lon="4.77174">
        <ele>189</ele>
        <time>2012-07-21T10:11:49.000Z</time>
      </trkpt>
      <trkpt lat="46.63547" lon="4.77173">
        <ele>189</ele>
        <time>2012-07-21T10:11:51.000Z</time>
      </trkpt>
      <trkpt lat="46.63548" lon="4.77174">
        <ele>189</ele>
        <time>2012-07-21T10:11:59.000Z</time>
      </trkpt>
      <trkpt lat="46.63548" lon="4.77174">
        <ele>189</ele>
        <time>2012-07-21T10:12:03.000Z</time>
      </trkpt>
    </trkseg>
  </trk>
</gpx>